<?xml version="1.0" encoding="UTF-8" standalone="no" ?>
<gpx xmlns="http://www.topografix.com/GPX/1/1" xmlns:xsi="http://www.w3.org/2001/XMLSchema-instance" xsi:schemaLocation="http://www.topografix.com/GPX/1/1 http://www.topografix.com/GPX/1/1/gpx.xsd" version="1.1" creator="VisuGPX - https://www.visugpx.com">
  <metadata>
    <name>Lo camin deus esvagats</name>
    <desc><![CDATA[Si l\'on traduit le titre du béarnais en français, il faudrait dire: le chemin de ceux qui ont le temps.
Oui, c\'est un chemin tranquille au milieu de bois, sur des chemins de terre et un peu de goudron. Les Pyrénées sont visibles, mais peu.]]></desc>
  </metadata>
  <trk>
    <name><![CDATA[Tracé actuel: 28 FEV 2012 14:23]]></name>
    <trkseg>
      <trkpt lat="43.36038" lon="-0.28728">
        <ele>309.68</ele>
        <time>2012-02-28T13:23:12Z</time>
      </trkpt>
      <trkpt lat="43.36035" lon="-0.28738">
        <ele>306.32</ele>
        <time>2012-02-28T13:23:38Z</time>
      </trkpt>
      <trkpt lat="43.36042" lon="-0.2875">
        <ele>306.32</ele>
        <time>2012-02-28T13:23:47Z</time>
      </trkpt>
      <trkpt lat="43.3605" lon="-0.28757">
        <ele>306.8</ele>
        <time>2012-02-28T13:23:56Z</time>
      </trkpt>
      <trkpt lat="43.36057" lon="-0.28766">
        <ele>305.36</ele>
        <time>2012-02-28T13:24:06Z</time>
      </trkpt>
      <trkpt lat="43.36064" lon="-0.28775">
        <ele>304.39</ele>
        <time>2012-02-28T13:24:15Z</time>
      </trkpt>
      <trkpt lat="43.36074" lon="-0.2878">
        <ele>304.39</ele>
        <time>2012-02-28T13:24:25Z</time>
      </trkpt>
      <trkpt lat="43.36083" lon="-0.28789">
        <ele>303.91</ele>
        <time>2012-02-28T13:24:35Z</time>
      </trkpt>
      <trkpt lat="43.36092" lon="-0.28795">
        <ele>303.43</ele>
        <time>2012-02-28T13:24:45Z</time>
      </trkpt>
      <trkpt lat="43.361" lon="-0.28803">
        <ele>303.43</ele>
        <time>2012-02-28T13:24:55Z</time>
      </trkpt>
      <trkpt lat="43.36109" lon="-0.28809">
        <ele>302.95</ele>
        <time>2012-02-28T13:25:07Z</time>
      </trkpt>
      <trkpt lat="43.36121" lon="-0.28814">
        <ele>303.43</ele>
        <time>2012-02-28T13:25:19Z</time>
      </trkpt>
      <trkpt lat="43.36132" lon="-0.28824">
        <ele>303.43</ele>
        <time>2012-02-28T13:25:31Z</time>
      </trkpt>
      <trkpt lat="43.36137" lon="-0.28836">
        <ele>301.99</ele>
        <time>2012-02-28T13:25:42Z</time>
      </trkpt>
      <trkpt lat="43.36145" lon="-0.28848">
        <ele>301.51</ele>
        <time>2012-02-28T13:25:54Z</time>
      </trkpt>
      <trkpt lat="43.36155" lon="-0.28846">
        <ele>301.99</ele>
        <time>2012-02-28T13:26:06Z</time>
      </trkpt>
      <trkpt lat="43.36168" lon="-0.28847">
        <ele>301.99</ele>
        <time>2012-02-28T13:26:20Z</time>
      </trkpt>
      <trkpt lat="43.36177" lon="-0.28854">
        <ele>301.99</ele>
        <time>2012-02-28T13:26:30Z</time>
      </trkpt>
      <trkpt lat="43.36185" lon="-0.28859">
        <ele>301.99</ele>
        <time>2012-02-28T13:26:39Z</time>
      </trkpt>
      <trkpt lat="43.36196" lon="-0.28868">
        <ele>301.99</ele>
        <time>2012-02-28T13:26:51Z</time>
      </trkpt>
      <trkpt lat="43.36202" lon="-0.28878">
        <ele>301.51</ele>
        <time>2012-02-28T13:27:07Z</time>
      </trkpt>
      <trkpt lat="43.36207" lon="-0.28893">
        <ele>300.07</ele>
        <time>2012-02-28T13:27:16Z</time>
      </trkpt>
      <trkpt lat="43.36212" lon="-0.28907">
        <ele>298.15</ele>
        <time>2012-02-28T13:27:25Z</time>
      </trkpt>
      <trkpt lat="43.36216" lon="-0.28921">
        <ele>297.18</ele>
        <time>2012-02-28T13:27:34Z</time>
      </trkpt>
      <trkpt lat="43.36219" lon="-0.28934">
        <ele>296.22</ele>
        <time>2012-02-28T13:27:42Z</time>
      </trkpt>
      <trkpt lat="43.36223" lon="-0.28947">
        <ele>294.78</ele>
        <time>2012-02-28T13:27:52Z</time>
      </trkpt>
      <trkpt lat="43.36225" lon="-0.28961">
        <ele>294.3</ele>
        <time>2012-02-28T13:28:01Z</time>
      </trkpt>
      <trkpt lat="43.36228" lon="-0.28974">
        <ele>292.86</ele>
        <time>2012-02-28T13:28:10Z</time>
      </trkpt>
      <trkpt lat="43.36231" lon="-0.28987">
        <ele>291.9</ele>
        <time>2012-02-28T13:28:19Z</time>
      </trkpt>
      <trkpt lat="43.36236" lon="-0.28999">
        <ele>290.94</ele>
        <time>2012-02-28T13:28:28Z</time>
      </trkpt>
      <trkpt lat="43.3624" lon="-0.29012">
        <ele>290.46</ele>
        <time>2012-02-28T13:28:37Z</time>
      </trkpt>
      <trkpt lat="43.36242" lon="-0.29028">
        <ele>289.01</ele>
        <time>2012-02-28T13:28:48Z</time>
      </trkpt>
      <trkpt lat="43.36242" lon="-0.29046">
        <ele>287.57</ele>
        <time>2012-02-28T13:28:59Z</time>
      </trkpt>
      <trkpt lat="43.36245" lon="-0.29063">
        <ele>286.13</ele>
        <time>2012-02-28T13:29:11Z</time>
      </trkpt>
      <trkpt lat="43.36249" lon="-0.29083">
        <ele>284.69</ele>
        <time>2012-02-28T13:29:23Z</time>
      </trkpt>
      <trkpt lat="43.36251" lon="-0.29101">
        <ele>283.25</ele>
        <time>2012-02-28T13:29:35Z</time>
      </trkpt>
      <trkpt lat="43.36252" lon="-0.29118">
        <ele>281.32</ele>
        <time>2012-02-28T13:29:47Z</time>
      </trkpt>
      <trkpt lat="43.3625" lon="-0.29134">
        <ele>280.36</ele>
        <time>2012-02-28T13:29:56Z</time>
      </trkpt>
      <trkpt lat="43.36247" lon="-0.29154">
        <ele>277.48</ele>
        <time>2012-02-28T13:30:11Z</time>
      </trkpt>
      <trkpt lat="43.36243" lon="-0.29167">
        <ele>276.04</ele>
        <time>2012-02-28T13:30:21Z</time>
      </trkpt>
      <trkpt lat="43.36239" lon="-0.2918">
        <ele>274.11</ele>
        <time>2012-02-28T13:30:31Z</time>
      </trkpt>
      <trkpt lat="43.36233" lon="-0.29195">
        <ele>272.19</ele>
        <time>2012-02-28T13:30:47Z</time>
      </trkpt>
      <trkpt lat="43.36222" lon="-0.29208">
        <ele>270.27</ele>
        <time>2012-02-28T13:30:58Z</time>
      </trkpt>
      <trkpt lat="43.36211" lon="-0.29221">
        <ele>268.83</ele>
        <time>2012-02-28T13:31:12Z</time>
      </trkpt>
      <trkpt lat="43.36205" lon="-0.2924">
        <ele>267.38</ele>
        <time>2012-02-28T13:31:25Z</time>
      </trkpt>
      <trkpt lat="43.36203" lon="-0.29263">
        <ele>266.42</ele>
        <time>2012-02-28T13:31:37Z</time>
      </trkpt>
      <trkpt lat="43.36202" lon="-0.2928">
        <ele>265.94</ele>
        <time>2012-02-28T13:31:49Z</time>
      </trkpt>
      <trkpt lat="43.36198" lon="-0.29295">
        <ele>264.98</ele>
        <time>2012-02-28T13:32:02Z</time>
      </trkpt>
      <trkpt lat="43.36195" lon="-0.29308">
        <ele>263.54</ele>
        <time>2012-02-28T13:32:17Z</time>
      </trkpt>
      <trkpt lat="43.36183" lon="-0.29323">
        <ele>262.58</ele>
        <time>2012-02-28T13:32:32Z</time>
      </trkpt>
      <trkpt lat="43.36176" lon="-0.29335">
        <ele>261.62</ele>
        <time>2012-02-28T13:32:46Z</time>
      </trkpt>
      <trkpt lat="43.3617" lon="-0.29353">
        <ele>260.17</ele>
        <time>2012-02-28T13:32:57Z</time>
      </trkpt>
      <trkpt lat="43.36163" lon="-0.29363">
        <ele>258.25</ele>
        <time>2012-02-28T13:33:08Z</time>
      </trkpt>
      <trkpt lat="43.36158" lon="-0.29379">
        <ele>258.25</ele>
        <time>2012-02-28T13:33:22Z</time>
      </trkpt>
      <trkpt lat="43.36158" lon="-0.29396">
        <ele>258.25</ele>
        <time>2012-02-28T13:33:33Z</time>
      </trkpt>
      <trkpt lat="43.36157" lon="-0.29413">
        <ele>256.81</ele>
        <time>2012-02-28T13:33:49Z</time>
      </trkpt>
      <trkpt lat="43.36157" lon="-0.29431">
        <ele>257.29</ele>
        <time>2012-02-28T13:34:02Z</time>
      </trkpt>
      <trkpt lat="43.36154" lon="-0.29444">
        <ele>256.81</ele>
        <time>2012-02-28T13:34:16Z</time>
      </trkpt>
      <trkpt lat="43.36155" lon="-0.29459">
        <ele>256.33</ele>
        <time>2012-02-28T13:34:26Z</time>
      </trkpt>
      <trkpt lat="43.36153" lon="-0.29475">
        <ele>256.33</ele>
        <time>2012-02-28T13:34:37Z</time>
      </trkpt>
      <trkpt lat="43.36147" lon="-0.29486">
        <ele>255.85</ele>
        <time>2012-02-28T13:34:48Z</time>
      </trkpt>
      <trkpt lat="43.36142" lon="-0.29497">
        <ele>255.85</ele>
        <time>2012-02-28T13:34:57Z</time>
      </trkpt>
      <trkpt lat="43.36135" lon="-0.29519">
        <ele>256.81</ele>
        <time>2012-02-28T13:35:17Z</time>
      </trkpt>
      <trkpt lat="43.36135" lon="-0.29534">
        <ele>255.85</ele>
        <time>2012-02-28T13:35:26Z</time>
      </trkpt>
      <trkpt lat="43.36137" lon="-0.2955">
        <ele>255.37</ele>
        <time>2012-02-28T13:35:37Z</time>
      </trkpt>
      <trkpt lat="43.36139" lon="-0.29568">
        <ele>254.89</ele>
        <time>2012-02-28T13:35:51Z</time>
      </trkpt>
      <trkpt lat="43.36141" lon="-0.29589">
        <ele>254.41</ele>
        <time>2012-02-28T13:36:03Z</time>
      </trkpt>
      <trkpt lat="43.36144" lon="-0.29606">
        <ele>252.96</ele>
        <time>2012-02-28T13:36:15Z</time>
      </trkpt>
      <trkpt lat="43.36147" lon="-0.29623">
        <ele>252</ele>
        <time>2012-02-28T13:36:27Z</time>
      </trkpt>
      <trkpt lat="43.36149" lon="-0.29641">
        <ele>252.96</ele>
        <time>2012-02-28T13:36:40Z</time>
      </trkpt>
      <trkpt lat="43.36146" lon="-0.29654">
        <ele>253.44</ele>
        <time>2012-02-28T13:36:53Z</time>
      </trkpt>
      <trkpt lat="43.36146" lon="-0.29669">
        <ele>253.44</ele>
        <time>2012-02-28T13:37:07Z</time>
      </trkpt>
      <trkpt lat="43.36149" lon="-0.29683">
        <ele>251.04</ele>
        <time>2012-02-28T13:37:21Z</time>
      </trkpt>
      <trkpt lat="43.36146" lon="-0.29704">
        <ele>251.04</ele>
        <time>2012-02-28T13:37:31Z</time>
      </trkpt>
      <trkpt lat="43.36146" lon="-0.29721">
        <ele>251.04</ele>
        <time>2012-02-28T13:37:44Z</time>
      </trkpt>
      <trkpt lat="43.36152" lon="-0.29745">
        <ele>251.04</ele>
        <time>2012-02-28T13:37:56Z</time>
      </trkpt>
      <trkpt lat="43.36156" lon="-0.29757">
        <ele>251.04</ele>
        <time>2012-02-28T13:38:11Z</time>
      </trkpt>
      <trkpt lat="43.3615" lon="-0.29766">
        <ele>252</ele>
        <time>2012-02-28T13:38:22Z</time>
      </trkpt>
      <trkpt lat="43.3614" lon="-0.2978">
        <ele>252</ele>
        <time>2012-02-28T13:38:37Z</time>
      </trkpt>
      <trkpt lat="43.36134" lon="-0.29789">
        <ele>252.96</ele>
        <time>2012-02-28T13:38:47Z</time>
      </trkpt>
      <trkpt lat="43.36128" lon="-0.298">
        <ele>253.93</ele>
        <time>2012-02-28T13:38:58Z</time>
      </trkpt>
      <trkpt lat="43.3612" lon="-0.29813">
        <ele>253.93</ele>
        <time>2012-02-28T13:39:09Z</time>
      </trkpt>
      <trkpt lat="43.36112" lon="-0.29826">
        <ele>253.93</ele>
        <time>2012-02-28T13:39:21Z</time>
      </trkpt>
      <trkpt lat="43.36108" lon="-0.29838">
        <ele>255.85</ele>
        <time>2012-02-28T13:39:32Z</time>
      </trkpt>
      <trkpt lat="43.36101" lon="-0.29849">
        <ele>255.85</ele>
        <time>2012-02-28T13:39:43Z</time>
      </trkpt>
      <trkpt lat="43.36097" lon="-0.29865">
        <ele>255.37</ele>
        <time>2012-02-28T13:39:54Z</time>
      </trkpt>
      <trkpt lat="43.36094" lon="-0.29879">
        <ele>256.33</ele>
        <time>2012-02-28T13:40:06Z</time>
      </trkpt>
      <trkpt lat="43.36096" lon="-0.29896">
        <ele>257.29</ele>
        <time>2012-02-28T13:40:18Z</time>
      </trkpt>
      <trkpt lat="43.36094" lon="-0.29915">
        <ele>257.77</ele>
        <time>2012-02-28T13:40:28Z</time>
      </trkpt>
      <trkpt lat="43.36093" lon="-0.29937">
        <ele>257.77</ele>
        <time>2012-02-28T13:40:40Z</time>
      </trkpt>
      <trkpt lat="43.36095" lon="-0.2996">
        <ele>256.33</ele>
        <time>2012-02-28T13:40:50Z</time>
      </trkpt>
      <trkpt lat="43.36094" lon="-0.29974">
        <ele>254.89</ele>
        <time>2012-02-28T13:41:03Z</time>
      </trkpt>
      <trkpt lat="43.36086" lon="-0.2999">
        <ele>252.48</ele>
        <time>2012-02-28T13:41:18Z</time>
      </trkpt>
      <trkpt lat="43.36079" lon="-0.30002">
        <ele>251.04</ele>
        <time>2012-02-28T13:41:27Z</time>
      </trkpt>
      <trkpt lat="43.36073" lon="-0.30012">
        <ele>250.56</ele>
        <time>2012-02-28T13:41:38Z</time>
      </trkpt>
      <trkpt lat="43.36073" lon="-0.30032">
        <ele>252.48</ele>
        <time>2012-02-28T13:41:49Z</time>
      </trkpt>
      <trkpt lat="43.36072" lon="-0.30044">
        <ele>253.93</ele>
        <time>2012-02-28T13:41:58Z</time>
      </trkpt>
      <trkpt lat="43.36072" lon="-0.30056">
        <ele>254.89</ele>
        <time>2012-02-28T13:42:08Z</time>
      </trkpt>
      <trkpt lat="43.36068" lon="-0.30068">
        <ele>256.33</ele>
        <time>2012-02-28T13:42:20Z</time>
      </trkpt>
      <trkpt lat="43.36071" lon="-0.30082">
        <ele>255.37</ele>
        <time>2012-02-28T13:42:30Z</time>
      </trkpt>
      <trkpt lat="43.36068" lon="-0.30103">
        <ele>254.41</ele>
        <time>2012-02-28T13:42:43Z</time>
      </trkpt>
      <trkpt lat="43.36068" lon="-0.30123">
        <ele>254.89</ele>
        <time>2012-02-28T13:42:56Z</time>
      </trkpt>
      <trkpt lat="43.36068" lon="-0.30137">
        <ele>252.96</ele>
        <time>2012-02-28T13:43:06Z</time>
      </trkpt>
      <trkpt lat="43.36071" lon="-0.30155">
        <ele>252.96</ele>
        <time>2012-02-28T13:43:19Z</time>
      </trkpt>
      <trkpt lat="43.36076" lon="-0.30167">
        <ele>254.89</ele>
        <time>2012-02-28T13:43:31Z</time>
      </trkpt>
      <trkpt lat="43.36087" lon="-0.30184">
        <ele>255.85</ele>
        <time>2012-02-28T13:43:42Z</time>
      </trkpt>
      <trkpt lat="43.3609" lon="-0.30195">
        <ele>257.77</ele>
        <time>2012-02-28T13:43:51Z</time>
      </trkpt>
      <trkpt lat="43.3609" lon="-0.3021">
        <ele>258.25</ele>
        <time>2012-02-28T13:44:02Z</time>
      </trkpt>
      <trkpt lat="43.36092" lon="-0.30222">
        <ele>259.69</ele>
        <time>2012-02-28T13:44:14Z</time>
      </trkpt>
      <trkpt lat="43.36094" lon="-0.30237">
        <ele>260.17</ele>
        <time>2012-02-28T13:44:26Z</time>
      </trkpt>
      <trkpt lat="43.36095" lon="-0.30251">
        <ele>260.65</ele>
        <time>2012-02-28T13:44:38Z</time>
      </trkpt>
      <trkpt lat="43.36092" lon="-0.30264">
        <ele>260.65</ele>
        <time>2012-02-28T13:44:50Z</time>
      </trkpt>
      <trkpt lat="43.36083" lon="-0.30264">
        <ele>263.06</ele>
        <time>2012-02-28T13:45:02Z</time>
      </trkpt>
      <trkpt lat="43.36072" lon="-0.30265">
        <ele>264.98</ele>
        <time>2012-02-28T13:45:15Z</time>
      </trkpt>
      <trkpt lat="43.36063" lon="-0.30258">
        <ele>267.38</ele>
        <time>2012-02-28T13:45:30Z</time>
      </trkpt>
      <trkpt lat="43.36055" lon="-0.30242">
        <ele>267.86</ele>
        <time>2012-02-28T13:45:43Z</time>
      </trkpt>
      <trkpt lat="43.3605" lon="-0.3023">
        <ele>270.27</ele>
        <time>2012-02-28T13:45:54Z</time>
      </trkpt>
      <trkpt lat="43.36044" lon="-0.30217">
        <ele>272.19</ele>
        <time>2012-02-28T13:46:08Z</time>
      </trkpt>
      <trkpt lat="43.36036" lon="-0.30204">
        <ele>274.11</ele>
        <time>2012-02-28T13:46:21Z</time>
      </trkpt>
      <trkpt lat="43.36028" lon="-0.30194">
        <ele>276.52</ele>
        <time>2012-02-28T13:46:35Z</time>
      </trkpt>
      <trkpt lat="43.36018" lon="-0.30192">
        <ele>278.44</ele>
        <time>2012-02-28T13:46:47Z</time>
      </trkpt>
      <trkpt lat="43.36008" lon="-0.30195">
        <ele>279.4</ele>
        <time>2012-02-28T13:46:58Z</time>
      </trkpt>
      <trkpt lat="43.35997" lon="-0.30198">
        <ele>280.36</ele>
        <time>2012-02-28T13:47:10Z</time>
      </trkpt>
      <trkpt lat="43.35988" lon="-0.30199">
        <ele>281.32</ele>
        <time>2012-02-28T13:47:23Z</time>
      </trkpt>
      <trkpt lat="43.35983" lon="-0.302">
        <ele>281.32</ele>
        <time>2012-02-28T13:49:05Z</time>
      </trkpt>
      <trkpt lat="43.35985" lon="-0.30212">
        <ele>279.4</ele>
        <time>2012-02-28T13:51:31Z</time>
      </trkpt>
      <trkpt lat="43.35988" lon="-0.30225">
        <ele>278.44</ele>
        <time>2012-02-28T13:51:40Z</time>
      </trkpt>
      <trkpt lat="43.3599" lon="-0.3024">
        <ele>277</ele>
        <time>2012-02-28T13:51:49Z</time>
      </trkpt>
      <trkpt lat="43.3599" lon="-0.30254">
        <ele>276.52</ele>
        <time>2012-02-28T13:51:58Z</time>
      </trkpt>
      <trkpt lat="43.3599" lon="-0.30268">
        <ele>275.07</ele>
        <time>2012-02-28T13:52:06Z</time>
      </trkpt>
      <trkpt lat="43.35989" lon="-0.30281">
        <ele>274.11</ele>
        <time>2012-02-28T13:52:14Z</time>
      </trkpt>
      <trkpt lat="43.35988" lon="-0.30294">
        <ele>273.15</ele>
        <time>2012-02-28T13:52:22Z</time>
      </trkpt>
      <trkpt lat="43.35986" lon="-0.30307">
        <ele>271.71</ele>
        <time>2012-02-28T13:52:30Z</time>
      </trkpt>
      <trkpt lat="43.35985" lon="-0.3032">
        <ele>270.75</ele>
        <time>2012-02-28T13:52:38Z</time>
      </trkpt>
      <trkpt lat="43.35983" lon="-0.30332">
        <ele>269.79</ele>
        <time>2012-02-28T13:52:46Z</time>
      </trkpt>
      <trkpt lat="43.35982" lon="-0.30345">
        <ele>268.83</ele>
        <time>2012-02-28T13:52:54Z</time>
      </trkpt>
      <trkpt lat="43.35982" lon="-0.30358">
        <ele>267.86</ele>
        <time>2012-02-28T13:53:02Z</time>
      </trkpt>
      <trkpt lat="43.35987" lon="-0.30369">
        <ele>266.42</ele>
        <time>2012-02-28T13:53:11Z</time>
      </trkpt>
      <trkpt lat="43.35994" lon="-0.30381">
        <ele>265.46</ele>
        <time>2012-02-28T13:53:21Z</time>
      </trkpt>
      <trkpt lat="43.36003" lon="-0.30389">
        <ele>264.02</ele>
        <time>2012-02-28T13:53:34Z</time>
      </trkpt>
      <trkpt lat="43.36014" lon="-0.30396">
        <ele>262.58</ele>
        <time>2012-02-28T13:53:43Z</time>
      </trkpt>
      <trkpt lat="43.36023" lon="-0.30403">
        <ele>261.14</ele>
        <time>2012-02-28T13:53:52Z</time>
      </trkpt>
      <trkpt lat="43.36032" lon="-0.3041">
        <ele>259.69</ele>
        <time>2012-02-28T13:54:01Z</time>
      </trkpt>
      <trkpt lat="43.36041" lon="-0.30419">
        <ele>257.77</ele>
        <time>2012-02-28T13:54:10Z</time>
      </trkpt>
      <trkpt lat="43.36049" lon="-0.30428">
        <ele>257.29</ele>
        <time>2012-02-28T13:54:19Z</time>
      </trkpt>
      <trkpt lat="43.36057" lon="-0.30436">
        <ele>256.81</ele>
        <time>2012-02-28T13:54:27Z</time>
      </trkpt>
      <trkpt lat="43.36063" lon="-0.30449">
        <ele>255.37</ele>
        <time>2012-02-28T13:54:36Z</time>
      </trkpt>
      <trkpt lat="43.36069" lon="-0.30458">
        <ele>254.41</ele>
        <time>2012-02-28T13:54:45Z</time>
      </trkpt>
      <trkpt lat="43.36075" lon="-0.30469">
        <ele>253.44</ele>
        <time>2012-02-28T13:54:54Z</time>
      </trkpt>
      <trkpt lat="43.36081" lon="-0.30482">
        <ele>252.48</ele>
        <time>2012-02-28T13:55:03Z</time>
      </trkpt>
      <trkpt lat="43.36085" lon="-0.30495">
        <ele>251.52</ele>
        <time>2012-02-28T13:55:12Z</time>
      </trkpt>
      <trkpt lat="43.36087" lon="-0.30509">
        <ele>250.08</ele>
        <time>2012-02-28T13:55:21Z</time>
      </trkpt>
      <trkpt lat="43.36089" lon="-0.30521">
        <ele>249.12</ele>
        <time>2012-02-28T13:55:29Z</time>
      </trkpt>
      <trkpt lat="43.36089" lon="-0.30534">
        <ele>248.16</ele>
        <time>2012-02-28T13:55:37Z</time>
      </trkpt>
      <trkpt lat="43.36089" lon="-0.30547">
        <ele>247.2</ele>
        <time>2012-02-28T13:55:45Z</time>
      </trkpt>
      <trkpt lat="43.36089" lon="-0.3056">
        <ele>246.23</ele>
        <time>2012-02-28T13:55:53Z</time>
      </trkpt>
      <trkpt lat="43.36091" lon="-0.30572">
        <ele>244.79</ele>
        <time>2012-02-28T13:56:01Z</time>
      </trkpt>
      <trkpt lat="43.36091" lon="-0.30585">
        <ele>244.31</ele>
        <time>2012-02-28T13:56:09Z</time>
      </trkpt>
      <trkpt lat="43.36091" lon="-0.30598">
        <ele>242.87</ele>
        <time>2012-02-28T13:56:17Z</time>
      </trkpt>
      <trkpt lat="43.3609" lon="-0.30612">
        <ele>241.91</ele>
        <time>2012-02-28T13:56:25Z</time>
      </trkpt>
      <trkpt lat="43.36091" lon="-0.30625">
        <ele>240.47</ele>
        <time>2012-02-28T13:56:33Z</time>
      </trkpt>
      <trkpt lat="43.3609" lon="-0.30637">
        <ele>239.51</ele>
        <time>2012-02-28T13:56:41Z</time>
      </trkpt>
      <trkpt lat="43.36089" lon="-0.30651">
        <ele>238.54</ele>
        <time>2012-02-28T13:56:49Z</time>
      </trkpt>
      <trkpt lat="43.36088" lon="-0.30664">
        <ele>237.58</ele>
        <time>2012-02-28T13:56:57Z</time>
      </trkpt>
      <trkpt lat="43.36087" lon="-0.30678">
        <ele>236.14</ele>
        <time>2012-02-28T13:57:05Z</time>
      </trkpt>
      <trkpt lat="43.36086" lon="-0.30691">
        <ele>235.18</ele>
        <time>2012-02-28T13:57:13Z</time>
      </trkpt>
      <trkpt lat="43.36084" lon="-0.30704">
        <ele>234.22</ele>
        <time>2012-02-28T13:57:21Z</time>
      </trkpt>
      <trkpt lat="43.36083" lon="-0.30718">
        <ele>233.74</ele>
        <time>2012-02-28T13:57:29Z</time>
      </trkpt>
      <trkpt lat="43.36083" lon="-0.30731">
        <ele>233.26</ele>
        <time>2012-02-28T13:57:37Z</time>
      </trkpt>
      <trkpt lat="43.36081" lon="-0.30745">
        <ele>232.3</ele>
        <time>2012-02-28T13:57:45Z</time>
      </trkpt>
      <trkpt lat="43.36074" lon="-0.30751">
        <ele>231.81</ele>
        <time>2012-02-28T13:57:53Z</time>
      </trkpt>
      <trkpt lat="43.36065" lon="-0.30746">
        <ele>231.81</ele>
        <time>2012-02-28T13:58:03Z</time>
      </trkpt>
      <trkpt lat="43.36057" lon="-0.30737">
        <ele>232.3</ele>
        <time>2012-02-28T13:58:12Z</time>
      </trkpt>
      <trkpt lat="43.36046" lon="-0.30726">
        <ele>232.3</ele>
        <time>2012-02-28T13:58:21Z</time>
      </trkpt>
      <trkpt lat="43.36037" lon="-0.30717">
        <ele>233.26</ele>
        <time>2012-02-28T13:58:29Z</time>
      </trkpt>
      <trkpt lat="43.36028" lon="-0.30707">
        <ele>233.26</ele>
        <time>2012-02-28T13:58:38Z</time>
      </trkpt>
      <trkpt lat="43.36018" lon="-0.30697">
        <ele>234.7</ele>
        <time>2012-02-28T13:58:49Z</time>
      </trkpt>
      <trkpt lat="43.36006" lon="-0.30686">
        <ele>235.18</ele>
        <time>2012-02-28T13:59:01Z</time>
      </trkpt>
      <trkpt lat="43.35997" lon="-0.30676">
        <ele>235.18</ele>
        <time>2012-02-28T13:59:11Z</time>
      </trkpt>
      <trkpt lat="43.35987" lon="-0.30667">
        <ele>236.14</ele>
        <time>2012-02-28T13:59:21Z</time>
      </trkpt>
      <trkpt lat="43.35977" lon="-0.30655">
        <ele>235.66</ele>
        <time>2012-02-28T13:59:30Z</time>
      </trkpt>
      <trkpt lat="43.35968" lon="-0.30648">
        <ele>235.66</ele>
        <time>2012-02-28T13:59:38Z</time>
      </trkpt>
      <trkpt lat="43.35959" lon="-0.3064">
        <ele>235.66</ele>
        <time>2012-02-28T13:59:47Z</time>
      </trkpt>
      <trkpt lat="43.35949" lon="-0.3063">
        <ele>235.66</ele>
        <time>2012-02-28T13:59:57Z</time>
      </trkpt>
      <trkpt lat="43.35939" lon="-0.30621">
        <ele>235.18</ele>
        <time>2012-02-28T14:00:06Z</time>
      </trkpt>
      <trkpt lat="43.35928" lon="-0.3061">
        <ele>235.66</ele>
        <time>2012-02-28T14:00:16Z</time>
      </trkpt>
      <trkpt lat="43.35917" lon="-0.30603">
        <ele>236.14</ele>
        <time>2012-02-28T14:00:26Z</time>
      </trkpt>
      <trkpt lat="43.35908" lon="-0.30596">
        <ele>236.14</ele>
        <time>2012-02-28T14:00:35Z</time>
      </trkpt>
      <trkpt lat="43.35898" lon="-0.30587">
        <ele>236.62</ele>
        <time>2012-02-28T14:00:44Z</time>
      </trkpt>
      <trkpt lat="43.35889" lon="-0.30578">
        <ele>237.1</ele>
        <time>2012-02-28T14:00:54Z</time>
      </trkpt>
      <trkpt lat="43.3588" lon="-0.30567">
        <ele>237.1</ele>
        <time>2012-02-28T14:01:06Z</time>
      </trkpt>
      <trkpt lat="43.35867" lon="-0.30552">
        <ele>237.58</ele>
        <time>2012-02-28T14:01:18Z</time>
      </trkpt>
      <trkpt lat="43.35857" lon="-0.30541">
        <ele>238.54</ele>
        <time>2012-02-28T14:01:28Z</time>
      </trkpt>
      <trkpt lat="43.35846" lon="-0.30529">
        <ele>239.02</ele>
        <time>2012-02-28T14:01:39Z</time>
      </trkpt>
      <trkpt lat="43.35837" lon="-0.30516">
        <ele>239.02</ele>
        <time>2012-02-28T14:01:50Z</time>
      </trkpt>
      <trkpt lat="43.35829" lon="-0.30503">
        <ele>239.99</ele>
        <time>2012-02-28T14:02:01Z</time>
      </trkpt>
      <trkpt lat="43.3582" lon="-0.30491">
        <ele>240.47</ele>
        <time>2012-02-28T14:02:14Z</time>
      </trkpt>
      <trkpt lat="43.35812" lon="-0.30479">
        <ele>241.43</ele>
        <time>2012-02-28T14:02:26Z</time>
      </trkpt>
      <trkpt lat="43.35803" lon="-0.30468">
        <ele>240.95</ele>
        <time>2012-02-28T14:02:36Z</time>
      </trkpt>
      <trkpt lat="43.35797" lon="-0.30458">
        <ele>241.43</ele>
        <time>2012-02-28T14:02:47Z</time>
      </trkpt>
      <trkpt lat="43.3579" lon="-0.30447">
        <ele>241.43</ele>
        <time>2012-02-28T14:02:54Z</time>
      </trkpt>
      <trkpt lat="43.35782" lon="-0.30441">
        <ele>242.39</ele>
        <time>2012-02-28T14:03:02Z</time>
      </trkpt>
      <trkpt lat="43.35771" lon="-0.30436">
        <ele>243.35</ele>
        <time>2012-02-28T14:03:13Z</time>
      </trkpt>
      <trkpt lat="43.35759" lon="-0.30432">
        <ele>243.83</ele>
        <time>2012-02-28T14:03:25Z</time>
      </trkpt>
      <trkpt lat="43.35748" lon="-0.30427">
        <ele>244.31</ele>
        <time>2012-02-28T14:03:36Z</time>
      </trkpt>
      <trkpt lat="43.35736" lon="-0.30415">
        <ele>244.31</ele>
        <time>2012-02-28T14:03:47Z</time>
      </trkpt>
      <trkpt lat="43.35726" lon="-0.30406">
        <ele>245.27</ele>
        <time>2012-02-28T14:03:58Z</time>
      </trkpt>
      <trkpt lat="43.35717" lon="-0.30396">
        <ele>245.27</ele>
        <time>2012-02-28T14:04:09Z</time>
      </trkpt>
      <trkpt lat="43.35705" lon="-0.30384">
        <ele>246.23</ele>
        <time>2012-02-28T14:04:20Z</time>
      </trkpt>
      <trkpt lat="43.35695" lon="-0.30371">
        <ele>246.72</ele>
        <time>2012-02-28T14:04:32Z</time>
      </trkpt>
      <trkpt lat="43.35662" lon="-0.30336">
        <ele>171.25</ele>
        <time>2012-02-28T14:05:05Z</time>
      </trkpt>
      <trkpt lat="43.35654" lon="-0.30329">
        <ele>171.73</ele>
        <time>2012-02-28T14:05:16Z</time>
      </trkpt>
      <trkpt lat="43.35644" lon="-0.30321">
        <ele>172.69</ele>
        <time>2012-02-28T14:05:28Z</time>
      </trkpt>
      <trkpt lat="43.35635" lon="-0.30313">
        <ele>173.17</ele>
        <time>2012-02-28T14:05:38Z</time>
      </trkpt>
      <trkpt lat="43.35625" lon="-0.30306">
        <ele>173.66</ele>
        <time>2012-02-28T14:05:49Z</time>
      </trkpt>
      <trkpt lat="43.35615" lon="-0.30302">
        <ele>173.66</ele>
        <time>2012-02-28T14:05:58Z</time>
      </trkpt>
      <trkpt lat="43.35603" lon="-0.30294">
        <ele>174.62</ele>
        <time>2012-02-28T14:06:06Z</time>
      </trkpt>
      <trkpt lat="43.3559" lon="-0.30285">
        <ele>175.58</ele>
        <time>2012-02-28T14:06:15Z</time>
      </trkpt>
      <trkpt lat="43.35579" lon="-0.3028">
        <ele>175.58</ele>
        <time>2012-02-28T14:06:24Z</time>
      </trkpt>
      <trkpt lat="43.35568" lon="-0.30274">
        <ele>176.06</ele>
        <time>2012-02-28T14:06:34Z</time>
      </trkpt>
      <trkpt lat="43.35556" lon="-0.30267">
        <ele>175.58</ele>
        <time>2012-02-28T14:06:44Z</time>
      </trkpt>
      <trkpt lat="43.35545" lon="-0.30259">
        <ele>176.54</ele>
        <time>2012-02-28T14:06:54Z</time>
      </trkpt>
      <trkpt lat="43.35535" lon="-0.30255">
        <ele>175.1</ele>
        <time>2012-02-28T14:07:04Z</time>
      </trkpt>
      <trkpt lat="43.35525" lon="-0.30252">
        <ele>175.58</ele>
        <time>2012-02-28T14:07:13Z</time>
      </trkpt>
      <trkpt lat="43.35515" lon="-0.30249">
        <ele>175.1</ele>
        <time>2012-02-28T14:07:22Z</time>
      </trkpt>
      <trkpt lat="43.35503" lon="-0.30244">
        <ele>175.1</ele>
        <time>2012-02-28T14:07:32Z</time>
      </trkpt>
      <trkpt lat="43.35494" lon="-0.3024">
        <ele>175.1</ele>
        <time>2012-02-28T14:07:41Z</time>
      </trkpt>
      <trkpt lat="43.35482" lon="-0.30235">
        <ele>174.62</ele>
        <time>2012-02-28T14:07:51Z</time>
      </trkpt>
      <trkpt lat="43.35472" lon="-0.30229">
        <ele>174.62</ele>
        <time>2012-02-28T14:07:59Z</time>
      </trkpt>
      <trkpt lat="43.35461" lon="-0.30223">
        <ele>174.62</ele>
        <time>2012-02-28T14:08:08Z</time>
      </trkpt>
      <trkpt lat="43.35449" lon="-0.30221">
        <ele>174.62</ele>
        <time>2012-02-28T14:08:18Z</time>
      </trkpt>
      <trkpt lat="43.35437" lon="-0.30218">
        <ele>175.1</ele>
        <time>2012-02-28T14:08:27Z</time>
      </trkpt>
      <trkpt lat="43.35426" lon="-0.30218">
        <ele>174.14</ele>
        <time>2012-02-28T14:08:36Z</time>
      </trkpt>
      <trkpt lat="43.35413" lon="-0.30215">
        <ele>174.14</ele>
        <time>2012-02-28T14:08:46Z</time>
      </trkpt>
      <trkpt lat="43.35401" lon="-0.30213">
        <ele>174.14</ele>
        <time>2012-02-28T14:08:57Z</time>
      </trkpt>
      <trkpt lat="43.35382" lon="-0.30205">
        <ele>174.62</ele>
        <time>2012-02-28T14:09:09Z</time>
      </trkpt>
      <trkpt lat="43.35368" lon="-0.30208">
        <ele>175.58</ele>
        <time>2012-02-28T14:09:20Z</time>
      </trkpt>
      <trkpt lat="43.35358" lon="-0.30206">
        <ele>176.54</ele>
        <time>2012-02-28T14:09:28Z</time>
      </trkpt>
      <trkpt lat="43.35349" lon="-0.30204">
        <ele>177.02</ele>
        <time>2012-02-28T14:09:35Z</time>
      </trkpt>
      <trkpt lat="43.35337" lon="-0.30201">
        <ele>177.5</ele>
        <time>2012-02-28T14:09:47Z</time>
      </trkpt>
      <trkpt lat="43.35327" lon="-0.30191">
        <ele>177.98</ele>
        <time>2012-02-28T14:09:59Z</time>
      </trkpt>
      <trkpt lat="43.35317" lon="-0.30184">
        <ele>178.46</ele>
        <time>2012-02-28T14:10:09Z</time>
      </trkpt>
      <trkpt lat="43.35306" lon="-0.30179">
        <ele>178.94</ele>
        <time>2012-02-28T14:10:20Z</time>
      </trkpt>
      <trkpt lat="43.35304" lon="-0.30181">
        <ele>180.87</ele>
        <time>2012-02-28T14:10:57Z</time>
      </trkpt>
      <trkpt lat="43.35313" lon="-0.30184">
        <ele>180.38</ele>
        <time>2012-02-28T14:11:07Z</time>
      </trkpt>
      <trkpt lat="43.35322" lon="-0.30187">
        <ele>180.87</ele>
        <time>2012-02-28T14:11:16Z</time>
      </trkpt>
      <trkpt lat="43.35303" lon="-0.30182">
        <ele>186.15</ele>
        <time>2012-02-28T14:14:09Z</time>
      </trkpt>
      <trkpt lat="43.35312" lon="-0.30169">
        <ele>187.11</ele>
        <time>2012-02-28T14:14:35Z</time>
      </trkpt>
      <trkpt lat="43.35318" lon="-0.30158">
        <ele>187.11</ele>
        <time>2012-02-28T14:14:43Z</time>
      </trkpt>
      <trkpt lat="43.35326" lon="-0.30142">
        <ele>187.59</ele>
        <time>2012-02-28T14:14:55Z</time>
      </trkpt>
      <trkpt lat="43.35332" lon="-0.30129">
        <ele>188.56</ele>
        <time>2012-02-28T14:15:05Z</time>
      </trkpt>
      <trkpt lat="43.35336" lon="-0.30115">
        <ele>188.56</ele>
        <time>2012-02-28T14:15:15Z</time>
      </trkpt>
      <trkpt lat="43.35337" lon="-0.30102">
        <ele>189.52</ele>
        <time>2012-02-28T14:15:24Z</time>
      </trkpt>
      <trkpt lat="43.35338" lon="-0.30086">
        <ele>190</ele>
        <time>2012-02-28T14:15:34Z</time>
      </trkpt>
      <trkpt lat="43.35339" lon="-0.30069">
        <ele>190</ele>
        <time>2012-02-28T14:15:44Z</time>
      </trkpt>
      <trkpt lat="43.3534" lon="-0.30051">
        <ele>190.96</ele>
        <time>2012-02-28T14:15:54Z</time>
      </trkpt>
      <trkpt lat="43.35341" lon="-0.30038">
        <ele>191.44</ele>
        <time>2012-02-28T14:16:03Z</time>
      </trkpt>
      <trkpt lat="43.3534" lon="-0.30025">
        <ele>191.92</ele>
        <time>2012-02-28T14:16:13Z</time>
      </trkpt>
      <trkpt lat="43.35337" lon="-0.30011">
        <ele>192.4</ele>
        <time>2012-02-28T14:16:23Z</time>
      </trkpt>
      <trkpt lat="43.35337" lon="-0.29997">
        <ele>192.4</ele>
        <time>2012-02-28T14:16:33Z</time>
      </trkpt>
      <trkpt lat="43.35335" lon="-0.29981">
        <ele>193.36</ele>
        <time>2012-02-28T14:16:43Z</time>
      </trkpt>
      <trkpt lat="43.35338" lon="-0.29965">
        <ele>193.36</ele>
        <time>2012-02-28T14:16:53Z</time>
      </trkpt>
      <trkpt lat="43.3534" lon="-0.29948">
        <ele>195.28</ele>
        <time>2012-02-28T14:17:03Z</time>
      </trkpt>
      <trkpt lat="43.35346" lon="-0.29931">
        <ele>195.28</ele>
        <time>2012-02-28T14:17:12Z</time>
      </trkpt>
      <trkpt lat="43.35358" lon="-0.29914">
        <ele>195.28</ele>
        <time>2012-02-28T14:17:22Z</time>
      </trkpt>
      <trkpt lat="43.35363" lon="-0.29901">
        <ele>195.77</ele>
        <time>2012-02-28T14:17:31Z</time>
      </trkpt>
      <trkpt lat="43.35368" lon="-0.2989">
        <ele>196.73</ele>
        <time>2012-02-28T14:17:44Z</time>
      </trkpt>
      <trkpt lat="43.35372" lon="-0.29878">
        <ele>197.69</ele>
        <time>2012-02-28T14:17:55Z</time>
      </trkpt>
      <trkpt lat="43.3538" lon="-0.29867">
        <ele>197.69</ele>
        <time>2012-02-28T14:18:03Z</time>
      </trkpt>
      <trkpt lat="43.35383" lon="-0.29855">
        <ele>198.17</ele>
        <time>2012-02-28T14:18:12Z</time>
      </trkpt>
      <trkpt lat="43.35387" lon="-0.2984">
        <ele>198.17</ele>
        <time>2012-02-28T14:18:21Z</time>
      </trkpt>
      <trkpt lat="43.35386" lon="-0.29824">
        <ele>199.13</ele>
        <time>2012-02-28T14:18:31Z</time>
      </trkpt>
      <trkpt lat="43.35382" lon="-0.29809">
        <ele>199.61</ele>
        <time>2012-02-28T14:18:40Z</time>
      </trkpt>
      <trkpt lat="43.35379" lon="-0.29795">
        <ele>199.61</ele>
        <time>2012-02-28T14:18:49Z</time>
      </trkpt>
      <trkpt lat="43.35378" lon="-0.29781">
        <ele>200.57</ele>
        <time>2012-02-28T14:18:59Z</time>
      </trkpt>
      <trkpt lat="43.35376" lon="-0.29766">
        <ele>201.05</ele>
        <time>2012-02-28T14:19:09Z</time>
      </trkpt>
      <trkpt lat="43.35374" lon="-0.29752">
        <ele>201.05</ele>
        <time>2012-02-28T14:19:19Z</time>
      </trkpt>
      <trkpt lat="43.35371" lon="-0.29738">
        <ele>201.53</ele>
        <time>2012-02-28T14:19:28Z</time>
      </trkpt>
      <trkpt lat="43.3537" lon="-0.29724">
        <ele>202.01</ele>
        <time>2012-02-28T14:19:38Z</time>
      </trkpt>
      <trkpt lat="43.35366" lon="-0.29711">
        <ele>202.49</ele>
        <time>2012-02-28T14:19:47Z</time>
      </trkpt>
      <trkpt lat="43.35363" lon="-0.29697">
        <ele>202.98</ele>
        <time>2012-02-28T14:19:56Z</time>
      </trkpt>
      <trkpt lat="43.35361" lon="-0.29683">
        <ele>203.94</ele>
        <time>2012-02-28T14:20:06Z</time>
      </trkpt>
      <trkpt lat="43.35358" lon="-0.29668">
        <ele>204.42</ele>
        <time>2012-02-28T14:20:16Z</time>
      </trkpt>
      <trkpt lat="43.35356" lon="-0.29654">
        <ele>204.42</ele>
        <time>2012-02-28T14:20:25Z</time>
      </trkpt>
      <trkpt lat="43.35354" lon="-0.29639">
        <ele>205.38</ele>
        <time>2012-02-28T14:20:35Z</time>
      </trkpt>
      <trkpt lat="43.35352" lon="-0.29623">
        <ele>205.38</ele>
        <time>2012-02-28T14:20:44Z</time>
      </trkpt>
      <trkpt lat="43.35349" lon="-0.29608">
        <ele>205.86</ele>
        <time>2012-02-28T14:20:54Z</time>
      </trkpt>
      <trkpt lat="43.35344" lon="-0.29594">
        <ele>206.34</ele>
        <time>2012-02-28T14:21:04Z</time>
      </trkpt>
      <trkpt lat="43.35342" lon="-0.29578">
        <ele>206.82</ele>
        <time>2012-02-28T14:21:13Z</time>
      </trkpt>
      <trkpt lat="43.35337" lon="-0.2956">
        <ele>206.82</ele>
        <time>2012-02-28T14:21:23Z</time>
      </trkpt>
      <trkpt lat="43.35334" lon="-0.29547">
        <ele>207.78</ele>
        <time>2012-02-28T14:21:33Z</time>
      </trkpt>
      <trkpt lat="43.35332" lon="-0.29532">
        <ele>208.74</ele>
        <time>2012-02-28T14:21:42Z</time>
      </trkpt>
      <trkpt lat="43.3533" lon="-0.29519">
        <ele>209.22</ele>
        <time>2012-02-28T14:21:50Z</time>
      </trkpt>
      <trkpt lat="43.35327" lon="-0.29504">
        <ele>209.22</ele>
        <time>2012-02-28T14:21:59Z</time>
      </trkpt>
      <trkpt lat="43.35325" lon="-0.2949">
        <ele>210.19</ele>
        <time>2012-02-28T14:22:08Z</time>
      </trkpt>
      <trkpt lat="43.35324" lon="-0.29478">
        <ele>211.15</ele>
        <time>2012-02-28T14:22:17Z</time>
      </trkpt>
      <trkpt lat="43.35322" lon="-0.29464">
        <ele>211.63</ele>
        <time>2012-02-28T14:22:29Z</time>
      </trkpt>
      <trkpt lat="43.35319" lon="-0.2945">
        <ele>213.55</ele>
        <time>2012-02-28T14:22:48Z</time>
      </trkpt>
      <trkpt lat="43.35311" lon="-0.29424">
        <ele>213.55</ele>
        <time>2012-02-28T14:22:59Z</time>
      </trkpt>
      <trkpt lat="43.35306" lon="-0.29413">
        <ele>214.03</ele>
        <time>2012-02-28T14:23:06Z</time>
      </trkpt>
      <trkpt lat="43.35301" lon="-0.29403">
        <ele>214.51</ele>
        <time>2012-02-28T14:23:19Z</time>
      </trkpt>
      <trkpt lat="43.35296" lon="-0.29392">
        <ele>214.51</ele>
        <time>2012-02-28T14:23:29Z</time>
      </trkpt>
      <trkpt lat="43.35292" lon="-0.29381">
        <ele>215.47</ele>
        <time>2012-02-28T14:23:44Z</time>
      </trkpt>
      <trkpt lat="43.35278" lon="-0.29356">
        <ele>215.95</ele>
        <time>2012-02-28T14:24:08Z</time>
      </trkpt>
      <trkpt lat="43.35265" lon="-0.29336">
        <ele>216.43</ele>
        <time>2012-02-28T14:24:25Z</time>
      </trkpt>
      <trkpt lat="43.35257" lon="-0.2933">
        <ele>216.91</ele>
        <time>2012-02-28T14:24:33Z</time>
      </trkpt>
      <trkpt lat="43.35246" lon="-0.2932">
        <ele>217.4</ele>
        <time>2012-02-28T14:24:44Z</time>
      </trkpt>
      <trkpt lat="43.35235" lon="-0.29312">
        <ele>218.36</ele>
        <time>2012-02-28T14:24:54Z</time>
      </trkpt>
      <trkpt lat="43.35228" lon="-0.29305">
        <ele>217.88</ele>
        <time>2012-02-28T14:25:04Z</time>
      </trkpt>
      <trkpt lat="43.35221" lon="-0.29295">
        <ele>219.32</ele>
        <time>2012-02-28T14:25:13Z</time>
      </trkpt>
      <trkpt lat="43.35218" lon="-0.29283">
        <ele>219.8</ele>
        <time>2012-02-28T14:25:20Z</time>
      </trkpt>
      <trkpt lat="43.35215" lon="-0.29272">
        <ele>220.28</ele>
        <time>2012-02-28T14:25:28Z</time>
      </trkpt>
      <trkpt lat="43.35212" lon="-0.2926">
        <ele>220.76</ele>
        <time>2012-02-28T14:25:38Z</time>
      </trkpt>
      <trkpt lat="43.35207" lon="-0.29247">
        <ele>221.24</ele>
        <time>2012-02-28T14:25:47Z</time>
      </trkpt>
      <trkpt lat="43.35202" lon="-0.29235">
        <ele>222.2</ele>
        <time>2012-02-28T14:25:57Z</time>
      </trkpt>
      <trkpt lat="43.35198" lon="-0.2922">
        <ele>222.68</ele>
        <time>2012-02-28T14:26:07Z</time>
      </trkpt>
      <trkpt lat="43.35196" lon="-0.29208">
        <ele>223.64</ele>
        <time>2012-02-28T14:26:15Z</time>
      </trkpt>
      <trkpt lat="43.35193" lon="-0.29197">
        <ele>223.16</ele>
        <time>2012-02-28T14:26:23Z</time>
      </trkpt>
      <trkpt lat="43.3519" lon="-0.29186">
        <ele>223.64</ele>
        <time>2012-02-28T14:26:30Z</time>
      </trkpt>
      <trkpt lat="43.35186" lon="-0.29174">
        <ele>223.64</ele>
        <time>2012-02-28T14:26:40Z</time>
      </trkpt>
      <trkpt lat="43.35183" lon="-0.2916">
        <ele>224.12</ele>
        <time>2012-02-28T14:26:48Z</time>
      </trkpt>
      <trkpt lat="43.35176" lon="-0.2915">
        <ele>224.61</ele>
        <time>2012-02-28T14:26:57Z</time>
      </trkpt>
      <trkpt lat="43.35169" lon="-0.2914">
        <ele>226.53</ele>
        <time>2012-02-28T14:29:09Z</time>
      </trkpt>
      <trkpt lat="43.35164" lon="-0.29129">
        <ele>227.01</ele>
        <time>2012-02-28T14:29:18Z</time>
      </trkpt>
      <trkpt lat="43.35159" lon="-0.29118">
        <ele>228.45</ele>
        <time>2012-02-28T14:29:27Z</time>
      </trkpt>
      <trkpt lat="43.35155" lon="-0.29106">
        <ele>229.41</ele>
        <time>2012-02-28T14:29:35Z</time>
      </trkpt>
      <trkpt lat="43.35149" lon="-0.29095">
        <ele>229.41</ele>
        <time>2012-02-28T14:29:44Z</time>
      </trkpt>
      <trkpt lat="43.35145" lon="-0.29083">
        <ele>230.37</ele>
        <time>2012-02-28T14:29:54Z</time>
      </trkpt>
      <trkpt lat="43.35142" lon="-0.29071">
        <ele>230.37</ele>
        <time>2012-02-28T14:30:02Z</time>
      </trkpt>
      <trkpt lat="43.35136" lon="-0.29061">
        <ele>231.33</ele>
        <time>2012-02-28T14:30:09Z</time>
      </trkpt>
      <trkpt lat="43.35131" lon="-0.2905">
        <ele>231.81</ele>
        <time>2012-02-28T14:30:19Z</time>
      </trkpt>
      <trkpt lat="43.35126" lon="-0.29039">
        <ele>232.78</ele>
        <time>2012-02-28T14:30:30Z</time>
      </trkpt>
      <trkpt lat="43.35121" lon="-0.29028">
        <ele>233.26</ele>
        <time>2012-02-28T14:30:37Z</time>
      </trkpt>
      <trkpt lat="43.35116" lon="-0.29018">
        <ele>233.74</ele>
        <time>2012-02-28T14:30:45Z</time>
      </trkpt>
      <trkpt lat="43.35111" lon="-0.29005">
        <ele>235.18</ele>
        <time>2012-02-28T14:30:54Z</time>
      </trkpt>
      <trkpt lat="43.35106" lon="-0.28994">
        <ele>235.18</ele>
        <time>2012-02-28T14:31:03Z</time>
      </trkpt>
      <trkpt lat="43.35101" lon="-0.28981">
        <ele>236.62</ele>
        <time>2012-02-28T14:31:12Z</time>
      </trkpt>
      <trkpt lat="43.35095" lon="-0.2897">
        <ele>237.1</ele>
        <time>2012-02-28T14:31:22Z</time>
      </trkpt>
      <trkpt lat="43.3509" lon="-0.28958">
        <ele>237.58</ele>
        <time>2012-02-28T14:31:31Z</time>
      </trkpt>
      <trkpt lat="43.35086" lon="-0.28945">
        <ele>238.06</ele>
        <time>2012-02-28T14:31:40Z</time>
      </trkpt>
      <trkpt lat="43.3508" lon="-0.28934">
        <ele>239.02</ele>
        <time>2012-02-28T14:31:47Z</time>
      </trkpt>
      <trkpt lat="43.35076" lon="-0.28921">
        <ele>239.51</ele>
        <time>2012-02-28T14:31:57Z</time>
      </trkpt>
      <trkpt lat="43.3507" lon="-0.28908">
        <ele>239.51</ele>
        <time>2012-02-28T14:32:04Z</time>
      </trkpt>
      <trkpt lat="43.35067" lon="-0.28896">
        <ele>240.95</ele>
        <time>2012-02-28T14:32:15Z</time>
      </trkpt>
      <trkpt lat="43.35061" lon="-0.28885">
        <ele>241.43</ele>
        <time>2012-02-28T14:32:24Z</time>
      </trkpt>
      <trkpt lat="43.35055" lon="-0.28876">
        <ele>241.91</ele>
        <time>2012-02-28T14:32:31Z</time>
      </trkpt>
      <trkpt lat="43.35049" lon="-0.28864">
        <ele>242.87</ele>
        <time>2012-02-28T14:32:40Z</time>
      </trkpt>
      <trkpt lat="43.3504" lon="-0.28846">
        <ele>243.35</ele>
        <time>2012-02-28T14:32:49Z</time>
      </trkpt>
      <trkpt lat="43.35033" lon="-0.28838">
        <ele>243.83</ele>
        <time>2012-02-28T14:32:58Z</time>
      </trkpt>
      <trkpt lat="43.35028" lon="-0.28828">
        <ele>244.31</ele>
        <time>2012-02-28T14:33:06Z</time>
      </trkpt>
      <trkpt lat="43.35022" lon="-0.28818">
        <ele>244.79</ele>
        <time>2012-02-28T14:33:16Z</time>
      </trkpt>
      <trkpt lat="43.35016" lon="-0.28805">
        <ele>244.79</ele>
        <time>2012-02-28T14:33:28Z</time>
      </trkpt>
      <trkpt lat="43.3501" lon="-0.28793">
        <ele>245.27</ele>
        <time>2012-02-28T14:33:35Z</time>
      </trkpt>
      <trkpt lat="43.35005" lon="-0.28782">
        <ele>245.75</ele>
        <time>2012-02-28T14:33:42Z</time>
      </trkpt>
      <trkpt lat="43.34999" lon="-0.28771">
        <ele>245.75</ele>
        <time>2012-02-28T14:33:49Z</time>
      </trkpt>
      <trkpt lat="43.34993" lon="-0.28759">
        <ele>246.23</ele>
        <time>2012-02-28T14:33:58Z</time>
      </trkpt>
      <trkpt lat="43.34987" lon="-0.28748">
        <ele>246.72</ele>
        <time>2012-02-28T14:34:07Z</time>
      </trkpt>
      <trkpt lat="43.34979" lon="-0.28734">
        <ele>246.72</ele>
        <time>2012-02-28T14:34:17Z</time>
      </trkpt>
      <trkpt lat="43.34974" lon="-0.28724">
        <ele>247.2</ele>
        <time>2012-02-28T14:34:25Z</time>
      </trkpt>
      <trkpt lat="43.34968" lon="-0.28714">
        <ele>247.2</ele>
        <time>2012-02-28T14:34:34Z</time>
      </trkpt>
      <trkpt lat="43.34963" lon="-0.28702">
        <ele>247.68</ele>
        <time>2012-02-28T14:34:44Z</time>
      </trkpt>
      <trkpt lat="43.34958" lon="-0.28689">
        <ele>247.2</ele>
        <time>2012-02-28T14:34:54Z</time>
      </trkpt>
      <trkpt lat="43.34952" lon="-0.28677">
        <ele>247.68</ele>
        <time>2012-02-28T14:35:04Z</time>
      </trkpt>
      <trkpt lat="43.34946" lon="-0.28665">
        <ele>247.2</ele>
        <time>2012-02-28T14:35:14Z</time>
      </trkpt>
      <trkpt lat="43.34944" lon="-0.28652">
        <ele>248.16</ele>
        <time>2012-02-28T14:35:24Z</time>
      </trkpt>
      <trkpt lat="43.34939" lon="-0.28638">
        <ele>247.68</ele>
        <time>2012-02-28T14:35:34Z</time>
      </trkpt>
      <trkpt lat="43.34938" lon="-0.28626">
        <ele>248.64</ele>
        <time>2012-02-28T14:35:42Z</time>
      </trkpt>
      <trkpt lat="43.34935" lon="-0.28614">
        <ele>249.6</ele>
        <time>2012-02-28T14:35:52Z</time>
      </trkpt>
      <trkpt lat="43.34928" lon="-0.28605">
        <ele>250.56</ele>
        <time>2012-02-28T14:36:01Z</time>
      </trkpt>
      <trkpt lat="43.34925" lon="-0.28592">
        <ele>251.52</ele>
        <time>2012-02-28T14:36:11Z</time>
      </trkpt>
      <trkpt lat="43.34919" lon="-0.28574">
        <ele>252.48</ele>
        <time>2012-02-28T14:36:20Z</time>
      </trkpt>
      <trkpt lat="43.34916" lon="-0.28561">
        <ele>253.44</ele>
        <time>2012-02-28T14:36:30Z</time>
      </trkpt>
      <trkpt lat="43.34912" lon="-0.2855">
        <ele>254.41</ele>
        <time>2012-02-28T14:36:39Z</time>
      </trkpt>
      <trkpt lat="43.34909" lon="-0.28537">
        <ele>255.85</ele>
        <time>2012-02-28T14:36:49Z</time>
      </trkpt>
      <trkpt lat="43.34908" lon="-0.28523">
        <ele>256.81</ele>
        <time>2012-02-28T14:36:58Z</time>
      </trkpt>
      <trkpt lat="43.34903" lon="-0.28509">
        <ele>257.29</ele>
        <time>2012-02-28T14:37:08Z</time>
      </trkpt>
      <trkpt lat="43.34896" lon="-0.28497">
        <ele>259.21</ele>
        <time>2012-02-28T14:37:18Z</time>
      </trkpt>
      <trkpt lat="43.3489" lon="-0.28485">
        <ele>260.17</ele>
        <time>2012-02-28T14:37:27Z</time>
      </trkpt>
      <trkpt lat="43.34884" lon="-0.28469">
        <ele>261.14</ele>
        <time>2012-02-28T14:37:37Z</time>
      </trkpt>
      <trkpt lat="43.34879" lon="-0.28458">
        <ele>262.58</ele>
        <time>2012-02-28T14:37:47Z</time>
      </trkpt>
      <trkpt lat="43.34874" lon="-0.28446">
        <ele>264.5</ele>
        <time>2012-02-28T14:37:59Z</time>
      </trkpt>
      <trkpt lat="43.3487" lon="-0.28434">
        <ele>265.46</ele>
        <time>2012-02-28T14:38:08Z</time>
      </trkpt>
      <trkpt lat="43.34865" lon="-0.28423">
        <ele>266.9</ele>
        <time>2012-02-28T14:38:16Z</time>
      </trkpt>
      <trkpt lat="43.34861" lon="-0.28411">
        <ele>267.86</ele>
        <time>2012-02-28T14:38:27Z</time>
      </trkpt>
      <trkpt lat="43.34855" lon="-0.28398">
        <ele>268.83</ele>
        <time>2012-02-28T14:38:37Z</time>
      </trkpt>
      <trkpt lat="43.34853" lon="-0.28386">
        <ele>268.83</ele>
        <time>2012-02-28T14:38:45Z</time>
      </trkpt>
      <trkpt lat="43.34848" lon="-0.28373">
        <ele>269.79</ele>
        <time>2012-02-28T14:38:55Z</time>
      </trkpt>
      <trkpt lat="43.34841" lon="-0.28361">
        <ele>271.23</ele>
        <time>2012-02-28T14:39:05Z</time>
      </trkpt>
      <trkpt lat="43.34837" lon="-0.28349">
        <ele>272.19</ele>
        <time>2012-02-28T14:39:15Z</time>
      </trkpt>
      <trkpt lat="43.34831" lon="-0.28337">
        <ele>273.15</ele>
        <time>2012-02-28T14:39:24Z</time>
      </trkpt>
      <trkpt lat="43.34826" lon="-0.28326">
        <ele>274.11</ele>
        <time>2012-02-28T14:39:35Z</time>
      </trkpt>
      <trkpt lat="43.3482" lon="-0.28317">
        <ele>277.48</ele>
        <time>2012-02-28T14:40:27Z</time>
      </trkpt>
      <trkpt lat="43.34823" lon="-0.28319">
        <ele>276.52</ele>
        <time>2012-02-28T14:40:53Z</time>
      </trkpt>
      <trkpt lat="43.34818" lon="-0.28307">
        <ele>277.96</ele>
        <time>2012-02-28T14:41:38Z</time>
      </trkpt>
      <trkpt lat="43.34812" lon="-0.28295">
        <ele>278.92</ele>
        <time>2012-02-28T14:41:47Z</time>
      </trkpt>
      <trkpt lat="43.34806" lon="-0.28283">
        <ele>280.84</ele>
        <time>2012-02-28T14:41:56Z</time>
      </trkpt>
      <trkpt lat="43.34801" lon="-0.28274">
        <ele>281.32</ele>
        <time>2012-02-28T14:42:05Z</time>
      </trkpt>
      <trkpt lat="43.34796" lon="-0.28263">
        <ele>282.77</ele>
        <time>2012-02-28T14:42:14Z</time>
      </trkpt>
      <trkpt lat="43.3479" lon="-0.28253">
        <ele>283.25</ele>
        <time>2012-02-28T14:42:24Z</time>
      </trkpt>
      <trkpt lat="43.34785" lon="-0.28242">
        <ele>284.21</ele>
        <time>2012-02-28T14:42:33Z</time>
      </trkpt>
      <trkpt lat="43.34781" lon="-0.28231">
        <ele>286.13</ele>
        <time>2012-02-28T14:42:42Z</time>
      </trkpt>
      <trkpt lat="43.34774" lon="-0.2822">
        <ele>286.13</ele>
        <time>2012-02-28T14:42:51Z</time>
      </trkpt>
      <trkpt lat="43.34767" lon="-0.2821">
        <ele>286.61</ele>
        <time>2012-02-28T14:43:00Z</time>
      </trkpt>
      <trkpt lat="43.34762" lon="-0.28201">
        <ele>287.57</ele>
        <time>2012-02-28T14:43:08Z</time>
      </trkpt>
      <trkpt lat="43.34756" lon="-0.2819">
        <ele>288.05</ele>
        <time>2012-02-28T14:43:16Z</time>
      </trkpt>
      <trkpt lat="43.3475" lon="-0.28179">
        <ele>288.53</ele>
        <time>2012-02-28T14:43:24Z</time>
      </trkpt>
      <trkpt lat="43.34744" lon="-0.2817">
        <ele>289.01</ele>
        <time>2012-02-28T14:43:31Z</time>
      </trkpt>
      <trkpt lat="43.34738" lon="-0.28162">
        <ele>289.97</ele>
        <time>2012-02-28T14:43:40Z</time>
      </trkpt>
      <trkpt lat="43.34732" lon="-0.28153">
        <ele>290.46</ele>
        <time>2012-02-28T14:43:49Z</time>
      </trkpt>
      <trkpt lat="43.34727" lon="-0.28144">
        <ele>291.42</ele>
        <time>2012-02-28T14:43:59Z</time>
      </trkpt>
      <trkpt lat="43.3472" lon="-0.28135">
        <ele>291.42</ele>
        <time>2012-02-28T14:44:08Z</time>
      </trkpt>
      <trkpt lat="43.34715" lon="-0.28121">
        <ele>291.9</ele>
        <time>2012-02-28T14:44:17Z</time>
      </trkpt>
      <trkpt lat="43.34718" lon="-0.28122">
        <ele>292.38</ele>
        <time>2012-02-28T14:44:50Z</time>
      </trkpt>
      <trkpt lat="43.34708" lon="-0.28126">
        <ele>297.67</ele>
        <time>2012-02-28T14:54:01Z</time>
      </trkpt>
      <trkpt lat="43.3471" lon="-0.28129">
        <ele>301.51</ele>
        <time>2012-02-28T14:58:34Z</time>
      </trkpt>
      <trkpt lat="43.34712" lon="-0.28126">
        <ele>305.36</ele>
        <time>2012-02-28T15:05:21Z</time>
      </trkpt>
      <trkpt lat="43.34708" lon="-0.28115">
        <ele>306.32</ele>
        <time>2012-02-28T15:06:39Z</time>
      </trkpt>
      <trkpt lat="43.34708" lon="-0.28103">
        <ele>307.28</ele>
        <time>2012-02-28T15:06:49Z</time>
      </trkpt>
      <trkpt lat="43.3471" lon="-0.28091">
        <ele>308.72</ele>
        <time>2012-02-28T15:07:02Z</time>
      </trkpt>
      <trkpt lat="43.34712" lon="-0.28078">
        <ele>309.68</ele>
        <time>2012-02-28T15:07:12Z</time>
      </trkpt>
      <trkpt lat="43.34713" lon="-0.28066">
        <ele>310.64</ele>
        <time>2012-02-28T15:07:23Z</time>
      </trkpt>
      <trkpt lat="43.34714" lon="-0.28052">
        <ele>311.6</ele>
        <time>2012-02-28T15:07:34Z</time>
      </trkpt>
      <trkpt lat="43.34713" lon="-0.28039">
        <ele>312.57</ele>
        <time>2012-02-28T15:07:43Z</time>
      </trkpt>
      <trkpt lat="43.34712" lon="-0.28022">
        <ele>313.05</ele>
        <time>2012-02-28T15:07:53Z</time>
      </trkpt>
      <trkpt lat="43.34711" lon="-0.28009">
        <ele>313.05</ele>
        <time>2012-02-28T15:08:03Z</time>
      </trkpt>
      <trkpt lat="43.3471" lon="-0.27996">
        <ele>314.01</ele>
        <time>2012-02-28T15:08:12Z</time>
      </trkpt>
      <trkpt lat="43.34708" lon="-0.27983">
        <ele>314.49</ele>
        <time>2012-02-28T15:08:22Z</time>
      </trkpt>
      <trkpt lat="43.34709" lon="-0.2797">
        <ele>314.49</ele>
        <time>2012-02-28T15:08:32Z</time>
      </trkpt>
      <trkpt lat="43.34708" lon="-0.27957">
        <ele>315.45</ele>
        <time>2012-02-28T15:08:42Z</time>
      </trkpt>
      <trkpt lat="43.34708" lon="-0.27943">
        <ele>316.41</ele>
        <time>2012-02-28T15:08:51Z</time>
      </trkpt>
      <trkpt lat="43.34708" lon="-0.2793">
        <ele>316.89</ele>
        <time>2012-02-28T15:09:01Z</time>
      </trkpt>
      <trkpt lat="43.34713" lon="-0.27919">
        <ele>316.89</ele>
        <time>2012-02-28T15:09:10Z</time>
      </trkpt>
      <trkpt lat="43.34716" lon="-0.27906">
        <ele>316.89</ele>
        <time>2012-02-28T15:09:20Z</time>
      </trkpt>
      <trkpt lat="43.3472" lon="-0.27893">
        <ele>316.89</ele>
        <time>2012-02-28T15:09:30Z</time>
      </trkpt>
      <trkpt lat="43.34725" lon="-0.27882">
        <ele>316.41</ele>
        <time>2012-02-28T15:09:41Z</time>
      </trkpt>
      <trkpt lat="43.34725" lon="-0.27868">
        <ele>315.93</ele>
        <time>2012-02-28T15:09:56Z</time>
      </trkpt>
      <trkpt lat="43.34718" lon="-0.27857">
        <ele>316.41</ele>
        <time>2012-02-28T15:10:06Z</time>
      </trkpt>
      <trkpt lat="43.34709" lon="-0.27847">
        <ele>315.93</ele>
        <time>2012-02-28T15:10:16Z</time>
      </trkpt>
      <trkpt lat="43.34701" lon="-0.27836">
        <ele>316.41</ele>
        <time>2012-02-28T15:10:26Z</time>
      </trkpt>
      <trkpt lat="43.34695" lon="-0.27826">
        <ele>316.41</ele>
        <time>2012-02-28T15:10:35Z</time>
      </trkpt>
      <trkpt lat="43.34689" lon="-0.27815">
        <ele>316.41</ele>
        <time>2012-02-28T15:10:44Z</time>
      </trkpt>
      <trkpt lat="43.34682" lon="-0.27804">
        <ele>316.89</ele>
        <time>2012-02-28T15:10:53Z</time>
      </trkpt>
      <trkpt lat="43.34676" lon="-0.27792">
        <ele>316.89</ele>
        <time>2012-02-28T15:11:02Z</time>
      </trkpt>
      <trkpt lat="43.34669" lon="-0.2778">
        <ele>317.37</ele>
        <time>2012-02-28T15:11:11Z</time>
      </trkpt>
      <trkpt lat="43.34664" lon="-0.2777">
        <ele>317.37</ele>
        <time>2012-02-28T15:11:19Z</time>
      </trkpt>
      <trkpt lat="43.34658" lon="-0.2776">
        <ele>316.89</ele>
        <time>2012-02-28T15:11:28Z</time>
      </trkpt>
      <trkpt lat="43.3465" lon="-0.27752">
        <ele>316.89</ele>
        <time>2012-02-28T15:11:36Z</time>
      </trkpt>
      <trkpt lat="43.34642" lon="-0.2774">
        <ele>316.41</ele>
        <time>2012-02-28T15:11:45Z</time>
      </trkpt>
      <trkpt lat="43.34636" lon="-0.2773">
        <ele>316.89</ele>
        <time>2012-02-28T15:11:54Z</time>
      </trkpt>
      <trkpt lat="43.3463" lon="-0.27719">
        <ele>316.41</ele>
        <time>2012-02-28T15:12:03Z</time>
      </trkpt>
      <trkpt lat="43.34628" lon="-0.27707">
        <ele>316.41</ele>
        <time>2012-02-28T15:12:11Z</time>
      </trkpt>
      <trkpt lat="43.34633" lon="-0.27697">
        <ele>315.93</ele>
        <time>2012-02-28T15:12:20Z</time>
      </trkpt>
      <trkpt lat="43.34641" lon="-0.27689">
        <ele>315.45</ele>
        <time>2012-02-28T15:12:30Z</time>
      </trkpt>
      <trkpt lat="43.34649" lon="-0.27681">
        <ele>314.97</ele>
        <time>2012-02-28T15:12:40Z</time>
      </trkpt>
      <trkpt lat="43.34658" lon="-0.27672">
        <ele>313.53</ele>
        <time>2012-02-28T15:12:50Z</time>
      </trkpt>
      <trkpt lat="43.34666" lon="-0.27664">
        <ele>313.05</ele>
        <time>2012-02-28T15:12:59Z</time>
      </trkpt>
      <trkpt lat="43.34673" lon="-0.27656">
        <ele>313.05</ele>
        <time>2012-02-28T15:13:08Z</time>
      </trkpt>
      <trkpt lat="43.34681" lon="-0.27647">
        <ele>312.57</ele>
        <time>2012-02-28T15:13:17Z</time>
      </trkpt>
      <trkpt lat="43.3469" lon="-0.27639">
        <ele>312.09</ele>
        <time>2012-02-28T15:13:26Z</time>
      </trkpt>
      <trkpt lat="43.34698" lon="-0.2763">
        <ele>312.09</ele>
        <time>2012-02-28T15:13:35Z</time>
      </trkpt>
      <trkpt lat="43.34708" lon="-0.27621">
        <ele>311.6</ele>
        <time>2012-02-28T15:13:44Z</time>
      </trkpt>
      <trkpt lat="43.34716" lon="-0.27613">
        <ele>311.12</ele>
        <time>2012-02-28T15:13:53Z</time>
      </trkpt>
      <trkpt lat="43.34724" lon="-0.27605">
        <ele>311.12</ele>
        <time>2012-02-28T15:14:02Z</time>
      </trkpt>
      <trkpt lat="43.34732" lon="-0.27597">
        <ele>310.64</ele>
        <time>2012-02-28T15:14:10Z</time>
      </trkpt>
      <trkpt lat="43.34742" lon="-0.27592">
        <ele>310.64</ele>
        <time>2012-02-28T15:14:20Z</time>
      </trkpt>
      <trkpt lat="43.34753" lon="-0.27591">
        <ele>309.68</ele>
        <time>2012-02-28T15:14:29Z</time>
      </trkpt>
      <trkpt lat="43.34762" lon="-0.2759">
        <ele>308.72</ele>
        <time>2012-02-28T15:14:37Z</time>
      </trkpt>
      <trkpt lat="43.34772" lon="-0.2759">
        <ele>307.76</ele>
        <time>2012-02-28T15:14:46Z</time>
      </trkpt>
      <trkpt lat="43.34784" lon="-0.27588">
        <ele>306.8</ele>
        <time>2012-02-28T15:14:56Z</time>
      </trkpt>
      <trkpt lat="43.34797" lon="-0.27584">
        <ele>306.32</ele>
        <time>2012-02-28T15:15:06Z</time>
      </trkpt>
      <trkpt lat="43.34806" lon="-0.27582">
        <ele>304.88</ele>
        <time>2012-02-28T15:15:15Z</time>
      </trkpt>
      <trkpt lat="43.34816" lon="-0.27578">
        <ele>304.39</ele>
        <time>2012-02-28T15:15:25Z</time>
      </trkpt>
      <trkpt lat="43.34826" lon="-0.27578">
        <ele>303.43</ele>
        <time>2012-02-28T15:15:35Z</time>
      </trkpt>
      <trkpt lat="43.3484" lon="-0.27575">
        <ele>301.99</ele>
        <time>2012-02-28T15:15:44Z</time>
      </trkpt>
      <trkpt lat="43.34851" lon="-0.27573">
        <ele>301.99</ele>
        <time>2012-02-28T15:15:55Z</time>
      </trkpt>
      <trkpt lat="43.34862" lon="-0.27572">
        <ele>301.51</ele>
        <time>2012-02-28T15:16:04Z</time>
      </trkpt>
      <trkpt lat="43.34872" lon="-0.27571">
        <ele>300.55</ele>
        <time>2012-02-28T15:16:12Z</time>
      </trkpt>
      <trkpt lat="43.34881" lon="-0.27569">
        <ele>300.07</ele>
        <time>2012-02-28T15:16:20Z</time>
      </trkpt>
      <trkpt lat="43.34892" lon="-0.27565">
        <ele>299.11</ele>
        <time>2012-02-28T15:16:28Z</time>
      </trkpt>
      <trkpt lat="43.34901" lon="-0.27563">
        <ele>298.63</ele>
        <time>2012-02-28T15:16:36Z</time>
      </trkpt>
      <trkpt lat="43.3491" lon="-0.27558">
        <ele>298.15</ele>
        <time>2012-02-28T15:16:44Z</time>
      </trkpt>
      <trkpt lat="43.34921" lon="-0.27552">
        <ele>297.18</ele>
        <time>2012-02-28T15:16:54Z</time>
      </trkpt>
      <trkpt lat="43.34933" lon="-0.27545">
        <ele>296.22</ele>
        <time>2012-02-28T15:17:03Z</time>
      </trkpt>
      <trkpt lat="43.34946" lon="-0.27539">
        <ele>296.22</ele>
        <time>2012-02-28T15:17:12Z</time>
      </trkpt>
      <trkpt lat="43.34955" lon="-0.27534">
        <ele>294.78</ele>
        <time>2012-02-28T15:17:23Z</time>
      </trkpt>
      <trkpt lat="43.34963" lon="-0.27529">
        <ele>294.78</ele>
        <time>2012-02-28T15:17:31Z</time>
      </trkpt>
      <trkpt lat="43.34967" lon="-0.27518">
        <ele>293.34</ele>
        <time>2012-02-28T15:17:44Z</time>
      </trkpt>
      <trkpt lat="43.34973" lon="-0.27508">
        <ele>292.86</ele>
        <time>2012-02-28T15:17:54Z</time>
      </trkpt>
      <trkpt lat="43.34977" lon="-0.27495">
        <ele>292.38</ele>
        <time>2012-02-28T15:18:08Z</time>
      </trkpt>
      <trkpt lat="43.34983" lon="-0.27486">
        <ele>292.38</ele>
        <time>2012-02-28T15:18:18Z</time>
      </trkpt>
      <trkpt lat="43.3499" lon="-0.27478">
        <ele>292.86</ele>
        <time>2012-02-28T15:18:30Z</time>
      </trkpt>
      <trkpt lat="43.35001" lon="-0.27458">
        <ele>291.42</ele>
        <time>2012-02-28T15:18:42Z</time>
      </trkpt>
      <trkpt lat="43.35009" lon="-0.2745">
        <ele>290.46</ele>
        <time>2012-02-28T15:18:50Z</time>
      </trkpt>
      <trkpt lat="43.35018" lon="-0.27443">
        <ele>290.94</ele>
        <time>2012-02-28T15:18:58Z</time>
      </trkpt>
      <trkpt lat="43.35026" lon="-0.27437">
        <ele>290.46</ele>
        <time>2012-02-28T15:19:06Z</time>
      </trkpt>
      <trkpt lat="43.35034" lon="-0.27423">
        <ele>287.57</ele>
        <time>2012-02-28T15:19:28Z</time>
      </trkpt>
      <trkpt lat="43.35037" lon="-0.27406">
        <ele>285.65</ele>
        <time>2012-02-28T15:19:37Z</time>
      </trkpt>
      <trkpt lat="43.35039" lon="-0.27395">
        <ele>284.21</ele>
        <time>2012-02-28T15:19:50Z</time>
      </trkpt>
      <trkpt lat="43.35041" lon="-0.27381">
        <ele>281.8</ele>
        <time>2012-02-28T15:20:03Z</time>
      </trkpt>
      <trkpt lat="43.35044" lon="-0.27366">
        <ele>280.84</ele>
        <time>2012-02-28T15:20:11Z</time>
      </trkpt>
      <trkpt lat="43.35049" lon="-0.27352">
        <ele>280.36</ele>
        <time>2012-02-28T15:20:21Z</time>
      </trkpt>
      <trkpt lat="43.35054" lon="-0.27336">
        <ele>278.92</ele>
        <time>2012-02-28T15:20:31Z</time>
      </trkpt>
      <trkpt lat="43.35058" lon="-0.27324">
        <ele>278.44</ele>
        <time>2012-02-28T15:20:40Z</time>
      </trkpt>
      <trkpt lat="43.35062" lon="-0.27312">
        <ele>277</ele>
        <time>2012-02-28T15:20:50Z</time>
      </trkpt>
      <trkpt lat="43.35067" lon="-0.27299">
        <ele>277</ele>
        <time>2012-02-28T15:20:59Z</time>
      </trkpt>
      <trkpt lat="43.35072" lon="-0.27289">
        <ele>276.04</ele>
        <time>2012-02-28T15:21:07Z</time>
      </trkpt>
      <trkpt lat="43.35077" lon="-0.27278">
        <ele>275.56</ele>
        <time>2012-02-28T15:21:16Z</time>
      </trkpt>
      <trkpt lat="43.35084" lon="-0.27268">
        <ele>275.07</ele>
        <time>2012-02-28T15:21:25Z</time>
      </trkpt>
      <trkpt lat="43.35093" lon="-0.27259">
        <ele>274.59</ele>
        <time>2012-02-28T15:21:34Z</time>
      </trkpt>
      <trkpt lat="43.35099" lon="-0.27249">
        <ele>274.59</ele>
        <time>2012-02-28T15:21:43Z</time>
      </trkpt>
      <trkpt lat="43.35105" lon="-0.2724">
        <ele>274.11</ele>
        <time>2012-02-28T15:21:54Z</time>
      </trkpt>
      <trkpt lat="43.35111" lon="-0.27231">
        <ele>274.11</ele>
        <time>2012-02-28T15:22:04Z</time>
      </trkpt>
      <trkpt lat="43.35117" lon="-0.2722">
        <ele>272.67</ele>
        <time>2012-02-28T15:22:14Z</time>
      </trkpt>
      <trkpt lat="43.35123" lon="-0.27212">
        <ele>272.67</ele>
        <time>2012-02-28T15:22:24Z</time>
      </trkpt>
      <trkpt lat="43.35131" lon="-0.27201">
        <ele>273.15</ele>
        <time>2012-02-28T15:22:34Z</time>
      </trkpt>
      <trkpt lat="43.35139" lon="-0.27193">
        <ele>272.67</ele>
        <time>2012-02-28T15:22:43Z</time>
      </trkpt>
      <trkpt lat="43.35146" lon="-0.27183">
        <ele>272.67</ele>
        <time>2012-02-28T15:22:53Z</time>
      </trkpt>
      <trkpt lat="43.35155" lon="-0.27174">
        <ele>272.19</ele>
        <time>2012-02-28T15:23:02Z</time>
      </trkpt>
      <trkpt lat="43.35162" lon="-0.27164">
        <ele>272.19</ele>
        <time>2012-02-28T15:23:11Z</time>
      </trkpt>
      <trkpt lat="43.3517" lon="-0.27154">
        <ele>272.19</ele>
        <time>2012-02-28T15:23:20Z</time>
      </trkpt>
      <trkpt lat="43.35179" lon="-0.27145">
        <ele>272.19</ele>
        <time>2012-02-28T15:23:31Z</time>
      </trkpt>
      <trkpt lat="43.35186" lon="-0.27149">
        <ele>271.71</ele>
        <time>2012-02-28T15:24:35Z</time>
      </trkpt>
      <trkpt lat="43.35195" lon="-0.27157">
        <ele>272.67</ele>
        <time>2012-02-28T15:24:47Z</time>
      </trkpt>
      <trkpt lat="43.35201" lon="-0.27168">
        <ele>271.71</ele>
        <time>2012-02-28T15:24:57Z</time>
      </trkpt>
      <trkpt lat="43.3521" lon="-0.27175">
        <ele>271.71</ele>
        <time>2012-02-28T15:25:08Z</time>
      </trkpt>
      <trkpt lat="43.35219" lon="-0.27184">
        <ele>271.71</ele>
        <time>2012-02-28T15:25:18Z</time>
      </trkpt>
      <trkpt lat="43.35229" lon="-0.27194">
        <ele>271.71</ele>
        <time>2012-02-28T15:25:27Z</time>
      </trkpt>
      <trkpt lat="43.35237" lon="-0.27205">
        <ele>271.71</ele>
        <time>2012-02-28T15:25:36Z</time>
      </trkpt>
      <trkpt lat="43.35246" lon="-0.27212">
        <ele>272.19</ele>
        <time>2012-02-28T15:25:44Z</time>
      </trkpt>
      <trkpt lat="43.35254" lon="-0.27222">
        <ele>272.67</ele>
        <time>2012-02-28T15:25:53Z</time>
      </trkpt>
      <trkpt lat="43.3526" lon="-0.27233">
        <ele>272.67</ele>
        <time>2012-02-28T15:26:01Z</time>
      </trkpt>
      <trkpt lat="43.35266" lon="-0.27244">
        <ele>273.63</ele>
        <time>2012-02-28T15:26:09Z</time>
      </trkpt>
      <trkpt lat="43.35271" lon="-0.27255">
        <ele>273.15</ele>
        <time>2012-02-28T15:26:17Z</time>
      </trkpt>
      <trkpt lat="43.3528" lon="-0.27264">
        <ele>273.63</ele>
        <time>2012-02-28T15:26:26Z</time>
      </trkpt>
      <trkpt lat="43.35289" lon="-0.2727">
        <ele>274.11</ele>
        <time>2012-02-28T15:26:35Z</time>
      </trkpt>
      <trkpt lat="43.353" lon="-0.27277">
        <ele>274.59</ele>
        <time>2012-02-28T15:26:42Z</time>
      </trkpt>
      <trkpt lat="43.35309" lon="-0.27285">
        <ele>274.59</ele>
        <time>2012-02-28T15:26:50Z</time>
      </trkpt>
      <trkpt lat="43.35318" lon="-0.27295">
        <ele>275.56</ele>
        <time>2012-02-28T15:27:01Z</time>
      </trkpt>
      <trkpt lat="43.35329" lon="-0.27302">
        <ele>275.56</ele>
        <time>2012-02-28T15:27:12Z</time>
      </trkpt>
      <trkpt lat="43.35338" lon="-0.27308">
        <ele>275.56</ele>
        <time>2012-02-28T15:27:20Z</time>
      </trkpt>
      <trkpt lat="43.35347" lon="-0.27313">
        <ele>275.56</ele>
        <time>2012-02-28T15:27:30Z</time>
      </trkpt>
      <trkpt lat="43.35355" lon="-0.27319">
        <ele>275.56</ele>
        <time>2012-02-28T15:27:38Z</time>
      </trkpt>
      <trkpt lat="43.35365" lon="-0.27326">
        <ele>275.56</ele>
        <time>2012-02-28T15:27:57Z</time>
      </trkpt>
      <trkpt lat="43.35373" lon="-0.27334">
        <ele>275.56</ele>
        <time>2012-02-28T15:28:05Z</time>
      </trkpt>
      <trkpt lat="43.35383" lon="-0.27342">
        <ele>275.56</ele>
        <time>2012-02-28T15:28:14Z</time>
      </trkpt>
      <trkpt lat="43.35389" lon="-0.27355">
        <ele>275.56</ele>
        <time>2012-02-28T15:28:23Z</time>
      </trkpt>
      <trkpt lat="43.3539" lon="-0.27368">
        <ele>276.04</ele>
        <time>2012-02-28T15:28:33Z</time>
      </trkpt>
      <trkpt lat="43.35392" lon="-0.27381">
        <ele>275.56</ele>
        <time>2012-02-28T15:28:41Z</time>
      </trkpt>
      <trkpt lat="43.35395" lon="-0.27392">
        <ele>276.04</ele>
        <time>2012-02-28T15:28:49Z</time>
      </trkpt>
      <trkpt lat="43.354" lon="-0.27405">
        <ele>276.04</ele>
        <time>2012-02-28T15:28:57Z</time>
      </trkpt>
      <trkpt lat="43.35402" lon="-0.27417">
        <ele>276.04</ele>
        <time>2012-02-28T15:29:05Z</time>
      </trkpt>
      <trkpt lat="43.35405" lon="-0.2743">
        <ele>276.04</ele>
        <time>2012-02-28T15:29:13Z</time>
      </trkpt>
      <trkpt lat="43.35408" lon="-0.27443">
        <ele>276.04</ele>
        <time>2012-02-28T15:29:22Z</time>
      </trkpt>
      <trkpt lat="43.35411" lon="-0.27459">
        <ele>275.56</ele>
        <time>2012-02-28T15:29:31Z</time>
      </trkpt>
      <trkpt lat="43.35412" lon="-0.27472">
        <ele>275.56</ele>
        <time>2012-02-28T15:29:39Z</time>
      </trkpt>
      <trkpt lat="43.35414" lon="-0.27485">
        <ele>275.56</ele>
        <time>2012-02-28T15:29:47Z</time>
      </trkpt>
      <trkpt lat="43.35416" lon="-0.27499">
        <ele>276.04</ele>
        <time>2012-02-28T15:29:57Z</time>
      </trkpt>
      <trkpt lat="43.35417" lon="-0.27513">
        <ele>276.04</ele>
        <time>2012-02-28T15:30:08Z</time>
      </trkpt>
      <trkpt lat="43.35418" lon="-0.27527">
        <ele>276.04</ele>
        <time>2012-02-28T15:30:17Z</time>
      </trkpt>
      <trkpt lat="43.3542" lon="-0.2754">
        <ele>277</ele>
        <time>2012-02-28T15:30:26Z</time>
      </trkpt>
      <trkpt lat="43.35421" lon="-0.27555">
        <ele>277</ele>
        <time>2012-02-28T15:30:35Z</time>
      </trkpt>
      <trkpt lat="43.35422" lon="-0.27568">
        <ele>277.48</ele>
        <time>2012-02-28T15:30:44Z</time>
      </trkpt>
      <trkpt lat="43.35424" lon="-0.27581">
        <ele>277.96</ele>
        <time>2012-02-28T15:30:52Z</time>
      </trkpt>
      <trkpt lat="43.35429" lon="-0.27591">
        <ele>277.96</ele>
        <time>2012-02-28T15:31:05Z</time>
      </trkpt>
      <trkpt lat="43.35429" lon="-0.27605">
        <ele>278.44</ele>
        <time>2012-02-28T15:31:14Z</time>
      </trkpt>
      <trkpt lat="43.3543" lon="-0.27618">
        <ele>278.92</ele>
        <time>2012-02-28T15:31:22Z</time>
      </trkpt>
      <trkpt lat="43.35432" lon="-0.27633">
        <ele>279.4</ele>
        <time>2012-02-28T15:31:32Z</time>
      </trkpt>
      <trkpt lat="43.35435" lon="-0.27646">
        <ele>280.36</ele>
        <time>2012-02-28T15:31:41Z</time>
      </trkpt>
      <trkpt lat="43.35438" lon="-0.27659">
        <ele>281.8</ele>
        <time>2012-02-28T15:31:50Z</time>
      </trkpt>
      <trkpt lat="43.3544" lon="-0.27673">
        <ele>282.28</ele>
        <time>2012-02-28T15:32:00Z</time>
      </trkpt>
      <trkpt lat="43.35436" lon="-0.27683">
        <ele>284.69</ele>
        <time>2012-02-28T15:32:09Z</time>
      </trkpt>
      <trkpt lat="43.35426" lon="-0.27683">
        <ele>286.13</ele>
        <time>2012-02-28T15:32:17Z</time>
      </trkpt>
      <trkpt lat="43.35417" lon="-0.27687">
        <ele>287.57</ele>
        <time>2012-02-28T15:32:25Z</time>
      </trkpt>
      <trkpt lat="43.35413" lon="-0.27699">
        <ele>289.49</ele>
        <time>2012-02-28T15:32:36Z</time>
      </trkpt>
      <trkpt lat="43.35421" lon="-0.27703">
        <ele>289.97</ele>
        <time>2012-02-28T15:32:45Z</time>
      </trkpt>
      <trkpt lat="43.3543" lon="-0.27708">
        <ele>291.42</ele>
        <time>2012-02-28T15:32:54Z</time>
      </trkpt>
      <trkpt lat="43.35439" lon="-0.27714">
        <ele>292.38</ele>
        <time>2012-02-28T15:33:05Z</time>
      </trkpt>
      <trkpt lat="43.35447" lon="-0.27722">
        <ele>293.34</ele>
        <time>2012-02-28T15:33:15Z</time>
      </trkpt>
      <trkpt lat="43.35454" lon="-0.27731">
        <ele>293.82</ele>
        <time>2012-02-28T15:33:24Z</time>
      </trkpt>
      <trkpt lat="43.35458" lon="-0.27739">
        <ele>294.78</ele>
        <time>2012-02-28T15:33:43Z</time>
      </trkpt>
      <trkpt lat="43.35463" lon="-0.27751">
        <ele>295.74</ele>
        <time>2012-02-28T15:33:52Z</time>
      </trkpt>
      <trkpt lat="43.35468" lon="-0.27764">
        <ele>296.7</ele>
        <time>2012-02-28T15:34:01Z</time>
      </trkpt>
      <trkpt lat="43.35473" lon="-0.27779">
        <ele>296.7</ele>
        <time>2012-02-28T15:34:11Z</time>
      </trkpt>
      <trkpt lat="43.35478" lon="-0.27792">
        <ele>297.67</ele>
        <time>2012-02-28T15:34:21Z</time>
      </trkpt>
      <trkpt lat="43.35482" lon="-0.27806">
        <ele>298.15</ele>
        <time>2012-02-28T15:34:30Z</time>
      </trkpt>
      <trkpt lat="43.35486" lon="-0.27822">
        <ele>298.15</ele>
        <time>2012-02-28T15:34:41Z</time>
      </trkpt>
      <trkpt lat="43.3549" lon="-0.27835">
        <ele>298.63</ele>
        <time>2012-02-28T15:34:50Z</time>
      </trkpt>
      <trkpt lat="43.35494" lon="-0.27849">
        <ele>299.11</ele>
        <time>2012-02-28T15:34:59Z</time>
      </trkpt>
      <trkpt lat="43.35497" lon="-0.27867">
        <ele>300.07</ele>
        <time>2012-02-28T15:35:10Z</time>
      </trkpt>
      <trkpt lat="43.35499" lon="-0.27883">
        <ele>300.07</ele>
        <time>2012-02-28T15:35:20Z</time>
      </trkpt>
      <trkpt lat="43.35502" lon="-0.27897">
        <ele>300.55</ele>
        <time>2012-02-28T15:35:29Z</time>
      </trkpt>
      <trkpt lat="43.35505" lon="-0.27909">
        <ele>300.55</ele>
        <time>2012-02-28T15:35:38Z</time>
      </trkpt>
      <trkpt lat="43.35508" lon="-0.27927">
        <ele>301.51</ele>
        <time>2012-02-28T15:35:50Z</time>
      </trkpt>
      <trkpt lat="43.35511" lon="-0.27946">
        <ele>302.47</ele>
        <time>2012-02-28T15:36:00Z</time>
      </trkpt>
      <trkpt lat="43.35513" lon="-0.27959">
        <ele>302.95</ele>
        <time>2012-02-28T15:36:08Z</time>
      </trkpt>
      <trkpt lat="43.35515" lon="-0.27973">
        <ele>303.43</ele>
        <time>2012-02-28T15:36:17Z</time>
      </trkpt>
      <trkpt lat="43.35517" lon="-0.27989">
        <ele>304.39</ele>
        <time>2012-02-28T15:36:26Z</time>
      </trkpt>
      <trkpt lat="43.3552" lon="-0.28001">
        <ele>304.39</ele>
        <time>2012-02-28T15:36:36Z</time>
      </trkpt>
      <trkpt lat="43.35523" lon="-0.28016">
        <ele>305.84</ele>
        <time>2012-02-28T15:36:47Z</time>
      </trkpt>
      <trkpt lat="43.35526" lon="-0.28028">
        <ele>306.32</ele>
        <time>2012-02-28T15:37:01Z</time>
      </trkpt>
      <trkpt lat="43.35532" lon="-0.28039">
        <ele>307.28</ele>
        <time>2012-02-28T15:37:11Z</time>
      </trkpt>
      <trkpt lat="43.3554" lon="-0.28049">
        <ele>308.72</ele>
        <time>2012-02-28T15:37:21Z</time>
      </trkpt>
      <trkpt lat="43.3555" lon="-0.28056">
        <ele>310.16</ele>
        <time>2012-02-28T15:37:31Z</time>
      </trkpt>
      <trkpt lat="43.35557" lon="-0.28064">
        <ele>311.12</ele>
        <time>2012-02-28T15:37:40Z</time>
      </trkpt>
      <trkpt lat="43.35564" lon="-0.28074">
        <ele>312.09</ele>
        <time>2012-02-28T15:37:50Z</time>
      </trkpt>
      <trkpt lat="43.35569" lon="-0.28087">
        <ele>312.57</ele>
        <time>2012-02-28T15:38:00Z</time>
      </trkpt>
      <trkpt lat="43.35577" lon="-0.28094">
        <ele>312.57</ele>
        <time>2012-02-28T15:39:44Z</time>
      </trkpt>
      <trkpt lat="43.35588" lon="-0.28095">
        <ele>313.05</ele>
        <time>2012-02-28T15:39:53Z</time>
      </trkpt>
      <trkpt lat="43.35599" lon="-0.28096">
        <ele>314.01</ele>
        <time>2012-02-28T15:40:03Z</time>
      </trkpt>
      <trkpt lat="43.35611" lon="-0.28097">
        <ele>314.49</ele>
        <time>2012-02-28T15:40:12Z</time>
      </trkpt>
      <trkpt lat="43.35622" lon="-0.28098">
        <ele>314.01</ele>
        <time>2012-02-28T15:40:21Z</time>
      </trkpt>
      <trkpt lat="43.35633" lon="-0.28097">
        <ele>314.97</ele>
        <time>2012-02-28T15:40:29Z</time>
      </trkpt>
      <trkpt lat="43.35643" lon="-0.28097">
        <ele>315.45</ele>
        <time>2012-02-28T15:40:43Z</time>
      </trkpt>
      <trkpt lat="43.35654" lon="-0.28097">
        <ele>315.45</ele>
        <time>2012-02-28T15:40:54Z</time>
      </trkpt>
      <trkpt lat="43.35666" lon="-0.28099">
        <ele>315.45</ele>
        <time>2012-02-28T15:41:04Z</time>
      </trkpt>
      <trkpt lat="43.35675" lon="-0.281">
        <ele>314.97</ele>
        <time>2012-02-28T15:41:14Z</time>
      </trkpt>
      <trkpt lat="43.35686" lon="-0.28103">
        <ele>314.97</ele>
        <time>2012-02-28T15:41:22Z</time>
      </trkpt>
      <trkpt lat="43.35696" lon="-0.28108">
        <ele>314.97</ele>
        <time>2012-02-28T15:41:30Z</time>
      </trkpt>
      <trkpt lat="43.35706" lon="-0.28113">
        <ele>314.49</ele>
        <time>2012-02-28T15:41:38Z</time>
      </trkpt>
      <trkpt lat="43.35715" lon="-0.2812">
        <ele>314.49</ele>
        <time>2012-02-28T15:41:46Z</time>
      </trkpt>
      <trkpt lat="43.35722" lon="-0.2813">
        <ele>314.49</ele>
        <time>2012-02-28T15:41:54Z</time>
      </trkpt>
      <trkpt lat="43.35728" lon="-0.2814">
        <ele>314.49</ele>
        <time>2012-02-28T15:42:01Z</time>
      </trkpt>
      <trkpt lat="43.35736" lon="-0.28151">
        <ele>314.49</ele>
        <time>2012-02-28T15:42:09Z</time>
      </trkpt>
      <trkpt lat="43.35743" lon="-0.28162">
        <ele>314.97</ele>
        <time>2012-02-28T15:42:17Z</time>
      </trkpt>
      <trkpt lat="43.3575" lon="-0.28175">
        <ele>314.49</ele>
        <time>2012-02-28T15:42:24Z</time>
      </trkpt>
      <trkpt lat="43.35756" lon="-0.28185">
        <ele>314.49</ele>
        <time>2012-02-28T15:42:31Z</time>
      </trkpt>
      <trkpt lat="43.35763" lon="-0.28197">
        <ele>314.97</ele>
        <time>2012-02-28T15:42:39Z</time>
      </trkpt>
      <trkpt lat="43.3577" lon="-0.28206">
        <ele>314.49</ele>
        <time>2012-02-28T15:42:47Z</time>
      </trkpt>
      <trkpt lat="43.35781" lon="-0.28212">
        <ele>314.01</ele>
        <time>2012-02-28T15:42:56Z</time>
      </trkpt>
      <trkpt lat="43.3579" lon="-0.28212">
        <ele>314.49</ele>
        <time>2012-02-28T15:43:21Z</time>
      </trkpt>
      <trkpt lat="43.358" lon="-0.28206">
        <ele>314.01</ele>
        <time>2012-02-28T15:43:29Z</time>
      </trkpt>
      <trkpt lat="43.3581" lon="-0.282">
        <ele>313.53</ele>
        <time>2012-02-28T15:43:38Z</time>
      </trkpt>
      <trkpt lat="43.3582" lon="-0.28193">
        <ele>312.57</ele>
        <time>2012-02-28T15:43:47Z</time>
      </trkpt>
      <trkpt lat="43.35829" lon="-0.28187">
        <ele>312.09</ele>
        <time>2012-02-28T15:43:56Z</time>
      </trkpt>
      <trkpt lat="43.35839" lon="-0.2818">
        <ele>311.6</ele>
        <time>2012-02-28T15:44:05Z</time>
      </trkpt>
      <trkpt lat="43.35849" lon="-0.28173">
        <ele>310.64</ele>
        <time>2012-02-28T15:44:14Z</time>
      </trkpt>
      <trkpt lat="43.35859" lon="-0.28166">
        <ele>310.16</ele>
        <time>2012-02-28T15:44:24Z</time>
      </trkpt>
      <trkpt lat="43.35867" lon="-0.28157">
        <ele>309.68</ele>
        <time>2012-02-28T15:44:33Z</time>
      </trkpt>
      <trkpt lat="43.35875" lon="-0.28147">
        <ele>309.2</ele>
        <time>2012-02-28T15:44:43Z</time>
      </trkpt>
      <trkpt lat="43.35884" lon="-0.2814">
        <ele>308.72</ele>
        <time>2012-02-28T15:44:52Z</time>
      </trkpt>
      <trkpt lat="43.35893" lon="-0.28133">
        <ele>307.76</ele>
        <time>2012-02-28T15:45:00Z</time>
      </trkpt>
      <trkpt lat="43.35902" lon="-0.28126">
        <ele>306.8</ele>
        <time>2012-02-28T15:45:08Z</time>
      </trkpt>
      <trkpt lat="43.3591" lon="-0.28119">
        <ele>305.84</ele>
        <time>2012-02-28T15:45:16Z</time>
      </trkpt>
      <trkpt lat="43.35918" lon="-0.28112">
        <ele>304.88</ele>
        <time>2012-02-28T15:45:25Z</time>
      </trkpt>
      <trkpt lat="43.35929" lon="-0.28106">
        <ele>302.95</ele>
        <time>2012-02-28T15:45:35Z</time>
      </trkpt>
      <trkpt lat="43.35938" lon="-0.28098">
        <ele>302.47</ele>
        <time>2012-02-28T15:45:44Z</time>
      </trkpt>
      <trkpt lat="43.35947" lon="-0.28091">
        <ele>301.51</ele>
        <time>2012-02-28T15:45:54Z</time>
      </trkpt>
      <trkpt lat="43.35957" lon="-0.28086">
        <ele>301.03</ele>
        <time>2012-02-28T15:46:24Z</time>
      </trkpt>
      <trkpt lat="43.35967" lon="-0.28086">
        <ele>301.51</ele>
        <time>2012-02-28T15:46:34Z</time>
      </trkpt>
      <trkpt lat="43.35976" lon="-0.28086">
        <ele>303.91</ele>
        <time>2012-02-28T15:46:49Z</time>
      </trkpt>
      <trkpt lat="43.35989" lon="-0.28084">
        <ele>305.36</ele>
        <time>2012-02-28T15:47:05Z</time>
      </trkpt>
      <trkpt lat="43.36004" lon="-0.28085">
        <ele>305.36</ele>
        <time>2012-02-28T15:47:14Z</time>
      </trkpt>
      <trkpt lat="43.36015" lon="-0.28087">
        <ele>304.88</ele>
        <time>2012-02-28T15:47:24Z</time>
      </trkpt>
      <trkpt lat="43.36025" lon="-0.28096">
        <ele>304.88</ele>
        <time>2012-02-28T15:47:35Z</time>
      </trkpt>
      <trkpt lat="43.36035" lon="-0.28109">
        <ele>304.88</ele>
        <time>2012-02-28T15:47:51Z</time>
      </trkpt>
      <trkpt lat="43.36045" lon="-0.2812">
        <ele>304.88</ele>
        <time>2012-02-28T15:47:59Z</time>
      </trkpt>
      <trkpt lat="43.36054" lon="-0.28132">
        <ele>304.88</ele>
        <time>2012-02-28T15:48:08Z</time>
      </trkpt>
      <trkpt lat="43.36062" lon="-0.28143">
        <ele>304.39</ele>
        <time>2012-02-28T15:48:17Z</time>
      </trkpt>
      <trkpt lat="43.36072" lon="-0.28155">
        <ele>305.36</ele>
        <time>2012-02-28T15:48:27Z</time>
      </trkpt>
      <trkpt lat="43.36078" lon="-0.28165">
        <ele>305.84</ele>
        <time>2012-02-28T15:48:35Z</time>
      </trkpt>
      <trkpt lat="43.36085" lon="-0.28175">
        <ele>305.84</ele>
        <time>2012-02-28T15:48:44Z</time>
      </trkpt>
      <trkpt lat="43.36093" lon="-0.28186">
        <ele>305.84</ele>
        <time>2012-02-28T15:48:52Z</time>
      </trkpt>
      <trkpt lat="43.361" lon="-0.28196">
        <ele>305.84</ele>
        <time>2012-02-28T15:49:01Z</time>
      </trkpt>
      <trkpt lat="43.36107" lon="-0.28207">
        <ele>305.84</ele>
        <time>2012-02-28T15:49:10Z</time>
      </trkpt>
      <trkpt lat="43.36114" lon="-0.28219">
        <ele>305.84</ele>
        <time>2012-02-28T15:49:19Z</time>
      </trkpt>
      <trkpt lat="43.36121" lon="-0.28229">
        <ele>305.84</ele>
        <time>2012-02-28T15:49:27Z</time>
      </trkpt>
      <trkpt lat="43.36127" lon="-0.28239">
        <ele>305.36</ele>
        <time>2012-02-28T15:49:36Z</time>
      </trkpt>
      <trkpt lat="43.36134" lon="-0.28248">
        <ele>305.36</ele>
        <time>2012-02-28T15:49:44Z</time>
      </trkpt>
      <trkpt lat="43.3614" lon="-0.2826">
        <ele>305.36</ele>
        <time>2012-02-28T15:49:53Z</time>
      </trkpt>
      <trkpt lat="43.36148" lon="-0.2827">
        <ele>304.88</ele>
        <time>2012-02-28T15:50:02Z</time>
      </trkpt>
      <trkpt lat="43.36153" lon="-0.28283">
        <ele>304.88</ele>
        <time>2012-02-28T15:50:13Z</time>
      </trkpt>
      <trkpt lat="43.36161" lon="-0.28296">
        <ele>304.88</ele>
        <time>2012-02-28T15:50:22Z</time>
      </trkpt>
      <trkpt lat="43.36167" lon="-0.28306">
        <ele>305.36</ele>
        <time>2012-02-28T15:50:30Z</time>
      </trkpt>
      <trkpt lat="43.36174" lon="-0.28316">
        <ele>304.39</ele>
        <time>2012-02-28T15:50:39Z</time>
      </trkpt>
      <trkpt lat="43.36183" lon="-0.28327">
        <ele>304.39</ele>
        <time>2012-02-28T15:50:49Z</time>
      </trkpt>
      <trkpt lat="43.36191" lon="-0.28338">
        <ele>303.91</ele>
        <time>2012-02-28T15:50:59Z</time>
      </trkpt>
      <trkpt lat="43.36198" lon="-0.28349">
        <ele>304.88</ele>
        <time>2012-02-28T15:51:08Z</time>
      </trkpt>
      <trkpt lat="43.36205" lon="-0.28361">
        <ele>304.39</ele>
        <time>2012-02-28T15:51:18Z</time>
      </trkpt>
      <trkpt lat="43.36212" lon="-0.28375">
        <ele>304.39</ele>
        <time>2012-02-28T15:51:28Z</time>
      </trkpt>
      <trkpt lat="43.36218" lon="-0.28386">
        <ele>304.39</ele>
        <time>2012-02-28T15:51:38Z</time>
      </trkpt>
      <trkpt lat="43.36223" lon="-0.28398">
        <ele>303.91</ele>
        <time>2012-02-28T15:51:47Z</time>
      </trkpt>
      <trkpt lat="43.36229" lon="-0.28411">
        <ele>303.91</ele>
        <time>2012-02-28T15:51:57Z</time>
      </trkpt>
      <trkpt lat="43.36236" lon="-0.28425">
        <ele>303.43</ele>
        <time>2012-02-28T15:52:06Z</time>
      </trkpt>
      <trkpt lat="43.36243" lon="-0.28436">
        <ele>303.43</ele>
        <time>2012-02-28T15:52:14Z</time>
      </trkpt>
      <trkpt lat="43.36249" lon="-0.28447">
        <ele>303.43</ele>
        <time>2012-02-28T15:52:21Z</time>
      </trkpt>
      <trkpt lat="43.36255" lon="-0.28458">
        <ele>303.43</ele>
        <time>2012-02-28T15:52:31Z</time>
      </trkpt>
      <trkpt lat="43.36261" lon="-0.28468">
        <ele>303.91</ele>
        <time>2012-02-28T15:52:39Z</time>
      </trkpt>
      <trkpt lat="43.36265" lon="-0.28482">
        <ele>303.91</ele>
        <time>2012-02-28T15:52:48Z</time>
      </trkpt>
      <trkpt lat="43.36259" lon="-0.285">
        <ele>304.88</ele>
        <time>2012-02-28T15:53:02Z</time>
      </trkpt>
      <trkpt lat="43.36255" lon="-0.28514">
        <ele>305.84</ele>
        <time>2012-02-28T15:53:17Z</time>
      </trkpt>
      <trkpt lat="43.36249" lon="-0.28528">
        <ele>306.8</ele>
        <time>2012-02-28T15:53:28Z</time>
      </trkpt>
      <trkpt lat="43.36243" lon="-0.28544">
        <ele>307.28</ele>
        <time>2012-02-28T15:53:40Z</time>
      </trkpt>
      <trkpt lat="43.36236" lon="-0.28563">
        <ele>308.24</ele>
        <time>2012-02-28T15:53:52Z</time>
      </trkpt>
      <trkpt lat="43.36231" lon="-0.28576">
        <ele>309.68</ele>
        <time>2012-02-28T15:54:05Z</time>
      </trkpt>
      <trkpt lat="43.36236" lon="-0.28588">
        <ele>305.84</ele>
        <time>2012-02-28T15:54:17Z</time>
      </trkpt>
      <trkpt lat="43.36234" lon="-0.28601">
        <ele>309.68</ele>
        <time>2012-02-28T15:55:17Z</time>
      </trkpt>
      <trkpt lat="43.3623" lon="-0.28614">
        <ele>309.68</ele>
        <time>2012-02-28T15:55:25Z</time>
      </trkpt>
      <trkpt lat="43.36225" lon="-0.28627">
        <ele>309.68</ele>
        <time>2012-02-28T15:55:34Z</time>
      </trkpt>
      <trkpt lat="43.3622" lon="-0.2864">
        <ele>309.2</ele>
        <time>2012-02-28T15:55:43Z</time>
      </trkpt>
      <trkpt lat="43.36216" lon="-0.28652">
        <ele>309.2</ele>
        <time>2012-02-28T15:55:51Z</time>
      </trkpt>
      <trkpt lat="43.36212" lon="-0.28664">
        <ele>308.72</ele>
        <time>2012-02-28T15:55:59Z</time>
      </trkpt>
      <trkpt lat="43.36208" lon="-0.28677">
        <ele>308.24</ele>
        <time>2012-02-28T15:56:07Z</time>
      </trkpt>
      <trkpt lat="43.36204" lon="-0.28691">
        <ele>307.28</ele>
        <time>2012-02-28T15:56:16Z</time>
      </trkpt>
      <trkpt lat="43.36201" lon="-0.28703">
        <ele>306.8</ele>
        <time>2012-02-28T15:56:25Z</time>
      </trkpt>
      <trkpt lat="43.36198" lon="-0.28715">
        <ele>306.32</ele>
        <time>2012-02-28T15:56:38Z</time>
      </trkpt>
      <trkpt lat="43.36195" lon="-0.28729">
        <ele>305.84</ele>
        <time>2012-02-28T15:56:46Z</time>
      </trkpt>
      <trkpt lat="43.36193" lon="-0.28744">
        <ele>304.39</ele>
        <time>2012-02-28T15:56:55Z</time>
      </trkpt>
      <trkpt lat="43.3619" lon="-0.28757">
        <ele>303.91</ele>
        <time>2012-02-28T15:57:03Z</time>
      </trkpt>
      <trkpt lat="43.36186" lon="-0.2877">
        <ele>302.95</ele>
        <time>2012-02-28T15:57:12Z</time>
      </trkpt>
      <trkpt lat="43.36182" lon="-0.28783">
        <ele>301.99</ele>
        <time>2012-02-28T15:57:21Z</time>
      </trkpt>
      <trkpt lat="43.36179" lon="-0.28797">
        <ele>301.51</ele>
        <time>2012-02-28T15:57:37Z</time>
      </trkpt>
      <trkpt lat="43.36172" lon="-0.28803">
        <ele>300.55</ele>
        <time>2012-02-28T15:57:47Z</time>
      </trkpt>
      <trkpt lat="43.36162" lon="-0.28809">
        <ele>299.59</ele>
        <time>2012-02-28T15:57:55Z</time>
      </trkpt>
      <trkpt lat="43.36153" lon="-0.2881">
        <ele>299.11</ele>
        <time>2012-02-28T15:58:04Z</time>
      </trkpt>
      <trkpt lat="43.36142" lon="-0.28807">
        <ele>299.11</ele>
        <time>2012-02-28T15:58:13Z</time>
      </trkpt>
      <trkpt lat="43.36132" lon="-0.28807">
        <ele>299.11</ele>
        <time>2012-02-28T15:58:22Z</time>
      </trkpt>
      <trkpt lat="43.36123" lon="-0.28806">
        <ele>298.63</ele>
        <time>2012-02-28T15:58:30Z</time>
      </trkpt>
      <trkpt lat="43.36114" lon="-0.28804">
        <ele>298.15</ele>
        <time>2012-02-28T15:58:38Z</time>
      </trkpt>
      <trkpt lat="43.36103" lon="-0.28806">
        <ele>297.67</ele>
        <time>2012-02-28T15:58:46Z</time>
      </trkpt>
      <trkpt lat="43.36097" lon="-0.28797">
        <ele>297.67</ele>
        <time>2012-02-28T15:58:54Z</time>
      </trkpt>
      <trkpt lat="43.3609" lon="-0.28781">
        <ele>298.63</ele>
        <time>2012-02-28T15:59:03Z</time>
      </trkpt>
      <trkpt lat="43.36081" lon="-0.28773">
        <ele>298.63</ele>
        <time>2012-02-28T15:59:12Z</time>
      </trkpt>
      <trkpt lat="43.36074" lon="-0.28765">
        <ele>299.11</ele>
        <time>2012-02-28T15:59:20Z</time>
      </trkpt>
      <trkpt lat="43.36066" lon="-0.28759">
        <ele>299.11</ele>
        <time>2012-02-28T15:59:28Z</time>
      </trkpt>
      <trkpt lat="43.36058" lon="-0.28749">
        <ele>301.03</ele>
        <time>2012-02-28T15:59:38Z</time>
      </trkpt>
      <trkpt lat="43.36047" lon="-0.28744">
        <ele>301.03</ele>
        <time>2012-02-28T15:59:47Z</time>
      </trkpt>
      <trkpt lat="43.36041" lon="-0.28735">
        <ele>301.03</ele>
        <time>2012-02-28T15:59:55Z</time>
      </trkpt>
      <trkpt lat="43.36039" lon="-0.2873">
        <ele>301.51</ele>
        <time>2012-02-28T16:01:08Z</time>
      </trkpt>
    </trkseg>
  </trk>
</gpx>